<?xml version="1.0" encoding="UTF-8" standalone="no" ?><gpx xmlns="http://www.topografix.com/GPX/1/1" xmlns:gpxx="http://www.garmin.com/xmlschemas/GpxExtensions/v3" xmlns:wptx1="http://www.garmin.com/xmlschemas/WaypointExtension/v1" xmlns:gpxtpx="http://www.garmin.com/xmlschemas/TrackPointExtension/v1" creator="GuideVTT.com" version="1.1" xmlns:xsi="http://www.w3.org/2001/XMLSchema-instance" xsi:schemaLocation="http://www.topografix.com/GPX/1/1 http://www.topografix.com/GPX/1/1/gpx.xsd http://www.garmin.com/xmlschemas/GpxExtensions/v3 http://www8.garmin.com/xmlschemas/GpxExtensionsv3.xsd http://www.garmin.com/xmlschemas/WaypointExtension/v1 http://www8.garmin.com/xmlschemas/WaypointExtensionv1.xsd http://www.garmin.com/xmlschemas/TrackPointExtension/v1 http://www.garmin.com/xmlschemas/TrackPointExtensionv1.xsd">
<metadata><link href="http://www.garmin.com"><text>Garmin International</text></link><time>2013-06-22T15:13:50Z</time></metadata>
<trk><name>2012-03-25.gpx</name><extensions><gpxx:TrackExtension><gpxx:DisplayColor>Cyan</gpxx:DisplayColor></gpxx:TrackExtension></extensions><trkseg>
<trkpt lat="48.18353240" lon="11.61048923"><ele>512.52002</ele><time>2012-03-25T12:08:50Z</time></trkpt>
<trkpt lat="48.18352872" lon="11.61058621"><ele>508.674683</ele><time>2012-03-25T12:08:55Z</time></trkpt>
<trkpt lat="48.18359468" lon="11.61105081"><ele>505.310181</ele><time>2012-03-25T12:09:12Z</time></trkpt>
<trkpt lat="48.18335253" lon="11.61138768"><ele>504.348877</ele><time>2012-03-25T12:09:17Z</time></trkpt>
<trkpt lat="48.18331623" lon="11.61162036"><ele>503.868164</ele><time>2012-03-25T12:09:19Z</time></trkpt>
<trkpt lat="48.18334079" lon="11.61248370"><ele>502.426147</ele><time>2012-03-25T12:09:27Z</time></trkpt>
<trkpt lat="48.18335731" lon="11.61298100"><ele>500.984131</ele><time>2012-03-25T12:09:33Z</time></trkpt>
<trkpt lat="48.18335052" lon="11.61320463"><ele>500.984131</ele><time>2012-03-25T12:09:36Z</time></trkpt>
<trkpt lat="48.18331749" lon="11.61338869"><ele>500.984131</ele><time>2012-03-25T12:09:40Z</time></trkpt>
<trkpt lat="48.18319017" lon="11.61338107"><ele>501.945557</ele><time>2012-03-25T12:09:43Z</time></trkpt>
<trkpt lat="48.18300669" lon="11.61381827"><ele>501.945557</ele><time>2012-03-25T12:09:52Z</time></trkpt>
<trkpt lat="48.18290083" lon="11.61430878"><ele>501.464844</ele><time>2012-03-25T12:09:58Z</time></trkpt>
<trkpt lat="48.18281760" lon="11.61504236"><ele>500.984131</ele><time>2012-03-25T12:10:06Z</time></trkpt>
<trkpt lat="48.18313577" lon="11.61528720"><ele>501.464844</ele><time>2012-03-25T12:10:12Z</time></trkpt>
<trkpt lat="48.18338572" lon="11.61544721"><ele>501.464844</ele><time>2012-03-25T12:10:16Z</time></trkpt>
<trkpt lat="48.18382284" lon="11.61586253"><ele>501.464844</ele><time>2012-03-25T12:10:24Z</time></trkpt>
<trkpt lat="48.18444301" lon="11.61648883"><ele>501.464844</ele><time>2012-03-25T12:10:36Z</time></trkpt>
<trkpt lat="48.18496093" lon="11.61713582"><ele>501.464844</ele><time>2012-03-25T12:10:47Z</time></trkpt>
<trkpt lat="48.18526704" lon="11.61758090"><ele>500.50354</ele><time>2012-03-25T12:10:55Z</time></trkpt>
<trkpt lat="48.18535488" lon="11.61806278"><ele>502.426147</ele><time>2012-03-25T12:11:11Z</time></trkpt>
<trkpt lat="48.18533828" lon="11.61896694"><ele>500.984131</ele><time>2012-03-25T12:11:24Z</time></trkpt>
<trkpt lat="48.18525455" lon="11.61969633"><ele>505.310181</ele><time>2012-03-25T12:11:40Z</time></trkpt>
<trkpt lat="48.18519772" lon="11.62012179"><ele>501.945557</ele><time>2012-03-25T12:11:50Z</time></trkpt>
<trkpt lat="48.18531280" lon="11.62075320"><ele>500.50354</ele><time>2012-03-25T12:12:03Z</time></trkpt>
<trkpt lat="48.18542386" lon="11.62081053"><ele>502.426147</ele><time>2012-03-25T12:12:07Z</time></trkpt>
<trkpt lat="48.18565696" lon="11.62094590"><ele>501.945557</ele><time>2012-03-25T12:12:15Z</time></trkpt>
<trkpt lat="48.18579032" lon="11.62100642"><ele>502.906738</ele><time>2012-03-25T12:12:19Z</time></trkpt>
<trkpt lat="48.18593625" lon="11.62069520"><ele>502.426147</ele><time>2012-03-25T12:12:27Z</time></trkpt>
<trkpt lat="48.18594958" lon="11.62060870"><ele>501.945557</ele><time>2012-03-25T12:12:29Z</time></trkpt>
<trkpt lat="48.18605385" lon="11.62048859"><ele>501.464844</ele><time>2012-03-25T12:12:32Z</time></trkpt>
<trkpt lat="48.18620129" lon="11.62043218"><ele>501.464844</ele><time>2012-03-25T12:12:35Z</time></trkpt>
<trkpt lat="48.18696773" lon="11.62104129"><ele>501.464844</ele><time>2012-03-25T12:12:50Z</time></trkpt>
<trkpt lat="48.18626792" lon="11.62213898"><ele>501.464844</ele><time>2012-03-25T12:13:05Z</time></trkpt>
<trkpt lat="48.18609324" lon="11.62241525"><ele>501.945557</ele><time>2012-03-25T12:13:09Z</time></trkpt>
<trkpt lat="48.18586098" lon="11.62320348"><ele>500.50354</ele><time>2012-03-25T12:13:18Z</time></trkpt>
<trkpt lat="48.18557315" lon="11.62407311"><ele>500.022949</ele><time>2012-03-25T12:13:28Z</time></trkpt>
<trkpt lat="48.18519663" lon="11.62520718"><ele>501.464844</ele><time>2012-03-25T12:13:41Z</time></trkpt>
<trkpt lat="48.18483830" lon="11.62639540"><ele>500.50354</ele><time>2012-03-25T12:13:54Z</time></trkpt>
<trkpt lat="48.18453589" lon="11.62755042"><ele>503.868164</ele><time>2012-03-25T12:14:06Z</time></trkpt>
<trkpt lat="48.18417672" lon="11.62882389"><ele>503.868164</ele><time>2012-03-25T12:14:21Z</time></trkpt>
<trkpt lat="48.18386416" lon="11.62970834"><ele>504.348877</ele><time>2012-03-25T12:14:33Z</time></trkpt>
<trkpt lat="48.18356551" lon="11.63050571"><ele>504.348877</ele><time>2012-03-25T12:14:44Z</time></trkpt>
<trkpt lat="48.18327843" lon="11.63129898"><ele>507.232788</ele><time>2012-03-25T12:14:55Z</time></trkpt>
<trkpt lat="48.18322403" lon="11.63141909"><ele>507.713501</ele><time>2012-03-25T12:14:57Z</time></trkpt>
<trkpt lat="48.18319218" lon="11.63174850"><ele>509.636108</ele><time>2012-03-25T12:15:02Z</time></trkpt>
<trkpt lat="48.18313301" lon="11.63209920"><ele>511.558716</ele><time>2012-03-25T12:15:07Z</time></trkpt>
<trkpt lat="48.18300568" lon="11.63245736"><ele>511.558716</ele><time>2012-03-25T12:15:15Z</time></trkpt>
<trkpt lat="48.18294953" lon="11.63262852"><ele>512.039429</ele><time>2012-03-25T12:15:24Z</time></trkpt>
<trkpt lat="48.18294953" lon="11.63264419"><ele>512.52002</ele><time>2012-03-25T12:15:30Z</time></trkpt>
<trkpt lat="48.18293880" lon="11.63273924"><ele>514.442627</ele><time>2012-03-25T12:15:44Z</time></trkpt>
<trkpt lat="48.18304634" lon="11.63297092"><ele>513.962036</ele><time>2012-03-25T12:15:49Z</time></trkpt>
<trkpt lat="48.18338471" lon="11.63326294"><ele>513.962036</ele><time>2012-03-25T12:15:55Z</time></trkpt>
<trkpt lat="48.18405460" lon="11.63381984"><ele>513.481445</ele><time>2012-03-25T12:16:05Z</time></trkpt>
<trkpt lat="48.18424839" lon="11.63395428"><ele>513.000732</ele><time>2012-03-25T12:16:08Z</time></trkpt>
<trkpt lat="48.18433816" lon="11.63428604"><ele>513.000732</ele><time>2012-03-25T12:16:12Z</time></trkpt>
<trkpt lat="48.18429499" lon="11.63461193"><ele>511.558716</ele><time>2012-03-25T12:16:15Z</time></trkpt>
<trkpt lat="48.18444025" lon="11.63494385"><ele>510.59729</ele><time>2012-03-25T12:16:19Z</time></trkpt>
<trkpt lat="48.18458660" lon="11.63499984"><ele>511.078003</ele><time>2012-03-25T12:16:21Z</time></trkpt>
<trkpt lat="48.18480235" lon="11.63503756"><ele>511.558716</ele><time>2012-03-25T12:16:24Z</time></trkpt>
<trkpt lat="48.18495104" lon="11.63534677"><ele>512.039429</ele><time>2012-03-25T12:16:28Z</time></trkpt>
<trkpt lat="48.18494123" lon="11.63545489"><ele>512.039429</ele><time>2012-03-25T12:16:29Z</time></trkpt>
<trkpt lat="48.18484618" lon="11.63664018"><ele>509.636108</ele><time>2012-03-25T12:16:40Z</time></trkpt>
<trkpt lat="48.18478810" lon="11.63725784"><ele>509.155396</ele><time>2012-03-25T12:16:46Z</time></trkpt>
<trkpt lat="48.18494140" lon="11.63756244"><ele>508.194092</ele><time>2012-03-25T12:16:50Z</time></trkpt>
<trkpt lat="48.18508456" lon="11.63759664"><ele>508.674683</ele><time>2012-03-25T12:16:52Z</time></trkpt>
<trkpt lat="48.18556074" lon="11.63771600"><ele>507.713501</ele><time>2012-03-25T12:16:59Z</time></trkpt>
<trkpt lat="48.18570860" lon="11.63796653"><ele>507.232788</ele><time>2012-03-25T12:17:03Z</time></trkpt>
<trkpt lat="48.18570063" lon="11.63807290"><ele>507.232788</ele><time>2012-03-25T12:17:04Z</time></trkpt>
<trkpt lat="48.18553174" lon="11.63961894"><ele>507.232788</ele><time>2012-03-25T12:17:18Z</time></trkpt>
<trkpt lat="48.18538832" lon="11.64075217"><ele>506.752075</ele><time>2012-03-25T12:17:28Z</time></trkpt>
<trkpt lat="48.18525061" lon="11.64185749"><ele>506.752075</ele><time>2012-03-25T12:17:38Z</time></trkpt>
<trkpt lat="48.18519160" lon="11.64280465"><ele>506.271484</ele><time>2012-03-25T12:17:47Z</time></trkpt>
<trkpt lat="48.18516788" lon="11.64358458"><ele>505.310181</ele><time>2012-03-25T12:17:54Z</time></trkpt>
<trkpt lat="48.18515556" lon="11.64468731"><ele>506.752075</ele><time>2012-03-25T12:18:04Z</time></trkpt>
<trkpt lat="48.18516956" lon="11.64532769"><ele>507.713501</ele><time>2012-03-25T12:18:11Z</time></trkpt>
<trkpt lat="48.18512530" lon="11.64598105"><ele>508.674683</ele><time>2012-03-25T12:18:18Z</time></trkpt>
<trkpt lat="48.18503721" lon="11.64722476"><ele>508.674683</ele><time>2012-03-25T12:18:31Z</time></trkpt>
<trkpt lat="48.18498918" lon="11.64832070"><ele>508.674683</ele><time>2012-03-25T12:18:42Z</time></trkpt>
<trkpt lat="48.18491785" lon="11.64930029"><ele>509.155396</ele><time>2012-03-25T12:18:52Z</time></trkpt>
<trkpt lat="48.18486764" lon="11.64986858"><ele>509.155396</ele><time>2012-03-25T12:18:58Z</time></trkpt>
<trkpt lat="48.18476421" lon="11.65030117"><ele>509.155396</ele><time>2012-03-25T12:19:03Z</time></trkpt>
<trkpt lat="48.18481970" lon="11.65058113"><ele>508.674683</ele><time>2012-03-25T12:19:06Z</time></trkpt>
<trkpt lat="48.18482917" lon="11.65078531"><ele>508.674683</ele><time>2012-03-25T12:19:08Z</time></trkpt>
<trkpt lat="48.18476086" lon="11.65190756"><ele>508.194092</ele><time>2012-03-25T12:19:19Z</time></trkpt>
<trkpt lat="48.18466379" lon="11.65317432"><ele>509.155396</ele><time>2012-03-25T12:19:32Z</time></trkpt>
<trkpt lat="48.18463496" lon="11.65334741"><ele>509.155396</ele><time>2012-03-25T12:19:34Z</time></trkpt>
<trkpt lat="48.18455516" lon="11.65375778"><ele>509.636108</ele><time>2012-03-25T12:19:39Z</time></trkpt>
<trkpt lat="48.18472330" lon="11.65387630"><ele>509.636108</ele><time>2012-03-25T12:19:42Z</time></trkpt>
<trkpt lat="48.18501583" lon="11.65384286"><ele>509.636108</ele><time>2012-03-25T12:19:46Z</time></trkpt>
<trkpt lat="48.18563467" lon="11.65402944"><ele>510.116699</ele><time>2012-03-25T12:19:55Z</time></trkpt>
<trkpt lat="48.18643405" lon="11.65432113"><ele>508.194092</ele><time>2012-03-25T12:20:07Z</time></trkpt>
<trkpt lat="48.18699832" lon="11.65449179"><ele>507.713501</ele><time>2012-03-25T12:20:15Z</time></trkpt>
<trkpt lat="48.18773685" lon="11.65474853"><ele>507.232788</ele><time>2012-03-25T12:20:26Z</time></trkpt>
<trkpt lat="48.18867747" lon="11.65506192"><ele>510.116699</ele><time>2012-03-25T12:20:40Z</time></trkpt>
<trkpt lat="48.18880521" lon="11.65512538"><ele>510.59729</ele><time>2012-03-25T12:20:42Z</time></trkpt>
<trkpt lat="48.18905935" lon="11.65545369"><ele>510.116699</ele><time>2012-03-25T12:20:47Z</time></trkpt>
<trkpt lat="48.18915381" lon="11.65559619"><ele>509.636108</ele><time>2012-03-25T12:20:49Z</time></trkpt>
<trkpt lat="48.18962756" lon="11.65599542"><ele>508.674683</ele><time>2012-03-25T12:20:57Z</time></trkpt>
<trkpt lat="48.19008462" lon="11.65622961"><ele>509.155396</ele><time>2012-03-25T12:21:04Z</time></trkpt>
<trkpt lat="48.19047597" lon="11.65630488"><ele>507.232788</ele><time>2012-03-25T12:21:10Z</time></trkpt>
<trkpt lat="48.19059391" lon="11.65658534"><ele>507.232788</ele><time>2012-03-25T12:21:14Z</time></trkpt>
<trkpt lat="48.19057295" lon="11.65675457"><ele>506.752075</ele><time>2012-03-25T12:21:16Z</time></trkpt>
<trkpt lat="48.19049525" lon="11.65759686"><ele>504.829468</ele><time>2012-03-25T12:21:26Z</time></trkpt>
<trkpt lat="48.19048704" lon="11.65768160"><ele>504.348877</ele><time>2012-03-25T12:21:27Z</time></trkpt>
<trkpt lat="48.19060531" lon="11.65793700"><ele>504.348877</ele><time>2012-03-25T12:21:31Z</time></trkpt>
<trkpt lat="48.19072374" lon="11.65800037"><ele>504.829468</ele><time>2012-03-25T12:21:33Z</time></trkpt>
<trkpt lat="48.19113479" lon="11.65816457"><ele>505.310181</ele><time>2012-03-25T12:21:39Z</time></trkpt>
<trkpt lat="48.19126915" lon="11.65839004"><ele>504.348877</ele><time>2012-03-25T12:21:43Z</time></trkpt>
<trkpt lat="48.19127024" lon="11.65858559"><ele>504.348877</ele><time>2012-03-25T12:21:45Z</time></trkpt>
<trkpt lat="48.19127133" lon="11.65942789"><ele>504.348877</ele><time>2012-03-25T12:21:53Z</time></trkpt>
<trkpt lat="48.19125549" lon="11.66065307"><ele>504.348877</ele><time>2012-03-25T12:22:05Z</time></trkpt>
<trkpt lat="48.19127619" lon="11.66207498"><ele>504.348877</ele><time>2012-03-25T12:22:19Z</time></trkpt>
<trkpt lat="48.19128407" lon="11.66336101"><ele>503.868164</ele><time>2012-03-25T12:22:32Z</time></trkpt>
<trkpt lat="48.19126102" lon="11.66443717"><ele>503.868164</ele><time>2012-03-25T12:22:43Z</time></trkpt>
<trkpt lat="48.19114124" lon="11.66557141"><ele>501.945557</ele><time>2012-03-25T12:22:54Z</time></trkpt>
<trkpt lat="48.19097905" lon="11.66700236"><ele>502.906738</ele><time>2012-03-25T12:23:08Z</time></trkpt>
<trkpt lat="48.19084830" lon="11.66824926"><ele>501.945557</ele><time>2012-03-25T12:23:20Z</time></trkpt>
<trkpt lat="48.19069901" lon="11.66948148"><ele>502.906738</ele><time>2012-03-25T12:23:32Z</time></trkpt>
<trkpt lat="48.19054948" lon="11.67085351"><ele>502.906738</ele><time>2012-03-25T12:23:45Z</time></trkpt>
<trkpt lat="48.19043348" lon="11.67190695"><ele>503.387451</ele><time>2012-03-25T12:23:55Z</time></trkpt>
<trkpt lat="48.19029601" lon="11.67304781"><ele>503.868164</ele><time>2012-03-25T12:24:06Z</time></trkpt>
<trkpt lat="48.19019442" lon="11.67417853"><ele>504.348877</ele><time>2012-03-25T12:24:17Z</time></trkpt>
<trkpt lat="48.19006861" lon="11.67528586"><ele>504.829468</ele><time>2012-03-25T12:24:28Z</time></trkpt>
<trkpt lat="48.18998898" lon="11.67608567"><ele>505.310181</ele><time>2012-03-25T12:24:37Z</time></trkpt>
<trkpt lat="48.18994808" lon="11.67648858"><ele>505.790894</ele><time>2012-03-25T12:24:42Z</time></trkpt>
<trkpt lat="48.18984674" lon="11.67744169"><ele>504.829468</ele><time>2012-03-25T12:24:52Z</time></trkpt>
<trkpt lat="48.18968967" lon="11.67890333"><ele>504.829468</ele><time>2012-03-25T12:25:07Z</time></trkpt>
<trkpt lat="48.18956620" lon="11.67997839"><ele>503.868164</ele><time>2012-03-25T12:25:18Z</time></trkpt>
<trkpt lat="48.18940418" lon="11.68138110"><ele>502.426147</ele><time>2012-03-25T12:25:32Z</time></trkpt>
<trkpt lat="48.18929940" lon="11.68239850"><ele>503.387451</ele><time>2012-03-25T12:25:42Z</time></trkpt>
<trkpt lat="48.18918633" lon="11.68348194"><ele>503.868164</ele><time>2012-03-25T12:25:53Z</time></trkpt>
<trkpt lat="48.18907008" lon="11.68455734"><ele>504.348877</ele><time>2012-03-25T12:26:04Z</time></trkpt>
<trkpt lat="48.18900537" lon="11.68513703"><ele>504.348877</ele><time>2012-03-25T12:26:10Z</time></trkpt>
<trkpt lat="48.18885307" lon="11.68648970"><ele>503.387451</ele><time>2012-03-25T12:26:23Z</time></trkpt>
<trkpt lat="48.18869172" lon="11.68787791"><ele>503.387451</ele><time>2012-03-25T12:26:37Z</time></trkpt>
<trkpt lat="48.18854822" lon="11.68918122"><ele>503.387451</ele><time>2012-03-25T12:26:50Z</time></trkpt>
<trkpt lat="48.18843020" lon="11.69016995"><ele>504.348877</ele><time>2012-03-25T12:27:00Z</time></trkpt>
<trkpt lat="48.18835636" lon="11.69081720"><ele>505.790894</ele><time>2012-03-25T12:27:07Z</time></trkpt>
<trkpt lat="48.18823943" lon="11.69183535"><ele>508.194092</ele><time>2012-03-25T12:27:18Z</time></trkpt>
<trkpt lat="48.18814832" lon="11.69269340"><ele>506.752075</ele><time>2012-03-25T12:27:26Z</time></trkpt>
<trkpt lat="48.18804321" lon="11.69361809"><ele>502.426147</ele><time>2012-03-25T12:27:33Z</time></trkpt>
<trkpt lat="48.18796576" lon="11.69436727"><ele>502.426147</ele><time>2012-03-25T12:27:39Z</time></trkpt>
<trkpt lat="48.18806282" lon="11.69500060"><ele>502.426147</ele><time>2012-03-25T12:27:45Z</time></trkpt>
<trkpt lat="48.18826592" lon="11.69603392"><ele>502.426147</ele><time>2012-03-25T12:27:55Z</time></trkpt>
<trkpt lat="48.18852953" lon="11.69746120"><ele>502.426147</ele><time>2012-03-25T12:28:09Z</time></trkpt>
<trkpt lat="48.18882876" lon="11.69908024"><ele>502.906738</ele><time>2012-03-25T12:28:25Z</time></trkpt>
<trkpt lat="48.18895767" lon="11.69976270"><ele>503.387451</ele><time>2012-03-25T12:28:33Z</time></trkpt>
<trkpt lat="48.18885776" lon="11.69996596"><ele>503.387451</ele><time>2012-03-25T12:28:37Z</time></trkpt>
<trkpt lat="48.18874117" lon="11.69996680"><ele>503.387451</ele><time>2012-03-25T12:28:39Z</time></trkpt>
<trkpt lat="48.18835795" lon="11.70000141"><ele>503.868164</ele><time>2012-03-25T12:28:45Z</time></trkpt>
<trkpt lat="48.18825410" lon="11.70023619"><ele>503.868164</ele><time>2012-03-25T12:28:49Z</time></trkpt>
<trkpt lat="48.18827346" lon="11.70032286"><ele>503.868164</ele><time>2012-03-25T12:28:50Z</time></trkpt>
<trkpt lat="48.18853665" lon="11.70145727"><ele>503.387451</ele><time>2012-03-25T12:29:02Z</time></trkpt>
<trkpt lat="48.18875408" lon="11.70239990"><ele>503.387451</ele><time>2012-03-25T12:29:12Z</time></trkpt>
<trkpt lat="48.18899506" lon="11.70344101"><ele>503.387451</ele><time>2012-03-25T12:29:24Z</time></trkpt>
<trkpt lat="48.18893865" lon="11.70371259"><ele>503.387451</ele><time>2012-03-25T12:29:28Z</time></trkpt>
<trkpt lat="48.18886656" lon="11.70381325"><ele>503.868164</ele><time>2012-03-25T12:29:30Z</time></trkpt>
<trkpt lat="48.18878878" lon="11.70411944"><ele>502.906738</ele><time>2012-03-25T12:29:35Z</time></trkpt>
<trkpt lat="48.18894250" lon="11.70452110"><ele>503.387451</ele><time>2012-03-25T12:29:41Z</time></trkpt>
<trkpt lat="48.18908122" lon="11.70469008"><ele>503.387451</ele><time>2012-03-25T12:29:46Z</time></trkpt>
<trkpt lat="48.18911919" lon="11.70467173"><ele>502.906738</ele><time>2012-03-25T12:29:47Z</time></trkpt>
<trkpt lat="48.18920461" lon="11.70462336"><ele>503.387451</ele><time>2012-03-25T12:29:49Z</time></trkpt>
<trkpt lat="48.18980332" lon="11.70417401"><ele>499.542236</ele><time>2012-03-25T12:30:00Z</time></trkpt>
<trkpt lat="48.19037061" lon="11.70374947"><ele>499.542236</ele><time>2012-03-25T12:30:10Z</time></trkpt>
<trkpt lat="48.19055895" lon="11.70335979"><ele>498.580933</ele><time>2012-03-25T12:30:15Z</time></trkpt>
<trkpt lat="48.19084587" lon="11.70217568"><ele>500.50354</ele><time>2012-03-25T12:30:27Z</time></trkpt>
<trkpt lat="48.19118802" lon="11.70091647"><ele>500.022949</ele><time>2012-03-25T12:30:40Z</time></trkpt>
<trkpt lat="48.19140410" lon="11.69991776"><ele>499.061523</ele><time>2012-03-25T12:30:50Z</time></trkpt>
<trkpt lat="48.19163804" lon="11.69870155"><ele>500.50354</ele><time>2012-03-25T12:31:02Z</time></trkpt>
<trkpt lat="48.19179704" lon="11.69777191"><ele>502.426147</ele><time>2012-03-25T12:31:12Z</time></trkpt>
<trkpt lat="48.19194021" lon="11.69675393"><ele>505.310181</ele><time>2012-03-25T12:31:24Z</time></trkpt>
<trkpt lat="48.19201388" lon="11.69627784"><ele>505.310181</ele><time>2012-03-25T12:31:30Z</time></trkpt>
<trkpt lat="48.19218353" lon="11.69614029"><ele>505.790894</ele><time>2012-03-25T12:31:34Z</time></trkpt>
<trkpt lat="48.19224045" lon="11.69616904"><ele>505.790894</ele><time>2012-03-25T12:31:35Z</time></trkpt>
<trkpt lat="48.19289147" lon="11.69648948"><ele>507.232788</ele><time>2012-03-25T12:31:47Z</time></trkpt>
<trkpt lat="48.19342146" lon="11.69669869"><ele>508.194092</ele><time>2012-03-25T12:31:55Z</time></trkpt>
<trkpt lat="48.19399402" lon="11.69707722"><ele>508.674683</ele><time>2012-03-25T12:32:03Z</time></trkpt>
<trkpt lat="48.19428639" lon="11.69745105"><ele>508.194092</ele><time>2012-03-25T12:32:07Z</time></trkpt>
<trkpt lat="48.19452636" lon="11.69822169"><ele>505.790894</ele><time>2012-03-25T12:32:13Z</time></trkpt>
<trkpt lat="48.19469090" lon="11.69903071"><ele>502.906738</ele><time>2012-03-25T12:32:20Z</time></trkpt>
<trkpt lat="48.19462996" lon="11.69957444"><ele>503.387451</ele><time>2012-03-25T12:32:25Z</time></trkpt>
<trkpt lat="48.19462778" lon="11.70025161"><ele>503.387451</ele><time>2012-03-25T12:32:31Z</time></trkpt>
<trkpt lat="48.19458646" lon="11.70121302"><ele>502.906738</ele><time>2012-03-25T12:32:40Z</time></trkpt>
<trkpt lat="48.19467648" lon="11.70162432"><ele>502.426147</ele><time>2012-03-25T12:32:44Z</time></trkpt>
<trkpt lat="48.19489139" lon="11.70170227"><ele>501.945557</ele><time>2012-03-25T12:32:47Z</time></trkpt>
<trkpt lat="48.19560586" lon="11.70170353"><ele>505.310181</ele><time>2012-03-25T12:32:57Z</time></trkpt>
<trkpt lat="48.19623853" lon="11.70178500"><ele>505.790894</ele><time>2012-03-25T12:33:06Z</time></trkpt>
<trkpt lat="48.19672795" lon="11.70202925"><ele>503.868164</ele><time>2012-03-25T12:33:39Z</time></trkpt>
<trkpt lat="48.19690070" lon="11.70208910"><ele>503.387451</ele><time>2012-03-25T12:33:44Z</time></trkpt>
<trkpt lat="48.19717655" lon="11.70220242"><ele>503.868164</ele><time>2012-03-25T12:33:49Z</time></trkpt>
<trkpt lat="48.19788029" lon="11.70255354"><ele>502.426147</ele><time>2012-03-25T12:34:00Z</time></trkpt>
<trkpt lat="48.19853324" lon="11.70276929"><ele>502.426147</ele><time>2012-03-25T12:34:10Z</time></trkpt>
<trkpt lat="48.19922869" lon="11.70284808"><ele>503.387451</ele><time>2012-03-25T12:34:20Z</time></trkpt>
<trkpt lat="48.19992590" lon="11.70294086"><ele>500.984131</ele><time>2012-03-25T12:34:30Z</time></trkpt>
<trkpt lat="48.20047768" lon="11.70289552"><ele>501.945557</ele><time>2012-03-25T12:34:38Z</time></trkpt>
<trkpt lat="48.20127874" lon="11.70262931"><ele>501.464844</ele><time>2012-03-25T12:34:49Z</time></trkpt>
<trkpt lat="48.20197829" lon="11.70226897"><ele>500.984131</ele><time>2012-03-25T12:34:59Z</time></trkpt>
<trkpt lat="48.20231776" lon="11.70212572"><ele>500.50354</ele><time>2012-03-25T12:35:04Z</time></trkpt>
<trkpt lat="48.20323943" lon="11.70143723"><ele>500.50354</ele><time>2012-03-25T12:35:18Z</time></trkpt>
<trkpt lat="48.20423252" lon="11.70073173"><ele>500.022949</ele><time>2012-03-25T12:35:34Z</time></trkpt>
<trkpt lat="48.20504766" lon="11.70011658"><ele>500.022949</ele><time>2012-03-25T12:35:47Z</time></trkpt>
<trkpt lat="48.20593799" lon="11.69944301"><ele>500.022949</ele><time>2012-03-25T12:36:01Z</time></trkpt>
<trkpt lat="48.20665120" lon="11.69885729"><ele>500.984131</ele><time>2012-03-25T12:36:13Z</time></trkpt>
<trkpt lat="48.20749878" lon="11.69810937"><ele>501.945557</ele><time>2012-03-25T12:36:27Z</time></trkpt>
<trkpt lat="48.20818543" lon="11.69746597"><ele>501.945557</ele><time>2012-03-25T12:36:38Z</time></trkpt>
<trkpt lat="48.20881667" lon="11.69678670"><ele>498.580933</ele><time>2012-03-25T12:36:47Z</time></trkpt>
<trkpt lat="48.20958621" lon="11.69591700"><ele>497.138916</ele><time>2012-03-25T12:36:57Z</time></trkpt>
<trkpt lat="48.21020094" lon="11.69533663"><ele>495.216187</ele><time>2012-03-25T12:37:05Z</time></trkpt>
<trkpt lat="48.21094466" lon="11.69464504"><ele>493.293579</ele><time>2012-03-25T12:37:15Z</time></trkpt>
<trkpt lat="48.21183767" lon="11.69376922"><ele>492.812988</ele><time>2012-03-25T12:37:28Z</time></trkpt>
<trkpt lat="48.21270327" lon="11.69288199"><ele>493.293579</ele><time>2012-03-25T12:37:41Z</time></trkpt>
<trkpt lat="48.21341766" lon="11.69210038"><ele>493.293579</ele><time>2012-03-25T12:37:53Z</time></trkpt>
<trkpt lat="48.21424764" lon="11.69120167"><ele>490.890381</ele><time>2012-03-25T12:38:07Z</time></trkpt>
<trkpt lat="48.21509086" lon="11.69030548"><ele>494.255005</ele><time>2012-03-25T12:38:21Z</time></trkpt>
<trkpt lat="48.21582670" lon="11.68979242"><ele>492.812988</ele><time>2012-03-25T12:38:32Z</time></trkpt>
<trkpt lat="48.21650798" lon="11.68945162"><ele>495.696899</ele><time>2012-03-25T12:38:42Z</time></trkpt>
<trkpt lat="48.21718843" lon="11.68917744"><ele>495.696899</ele><time>2012-03-25T12:38:52Z</time></trkpt>
<trkpt lat="48.21812502" lon="11.68881987"><ele>495.696899</ele><time>2012-03-25T12:39:06Z</time></trkpt>
<trkpt lat="48.21832602" lon="11.68874326"><ele>496.177734</ele><time>2012-03-25T12:39:09Z</time></trkpt>
<trkpt lat="48.21857412" lon="11.68859356"><ele>496.177734</ele><time>2012-03-25T12:39:13Z</time></trkpt>
<trkpt lat="48.21885064" lon="11.68840874"><ele>494.735596</ele><time>2012-03-25T12:39:19Z</time></trkpt>
<trkpt lat="48.21896648" lon="11.68858568"><ele>494.255005</ele><time>2012-03-25T12:39:23Z</time></trkpt>
<trkpt lat="48.21897394" lon="11.68876732"><ele>494.255005</ele><time>2012-03-25T12:39:25Z</time></trkpt>
<trkpt lat="48.21902046" lon="11.68966351"><ele>496.177734</ele><time>2012-03-25T12:39:33Z</time></trkpt>
<trkpt lat="48.21909087" lon="11.69063045"><ele>497.619629</ele><time>2012-03-25T12:39:42Z</time></trkpt>
<trkpt lat="48.21909321" lon="11.69117100"><ele>497.138916</ele><time>2012-03-25T12:39:47Z</time></trkpt>
<trkpt lat="48.21913789" lon="11.69126311"><ele>497.138916</ele><time>2012-03-25T12:39:48Z</time></trkpt>
<trkpt lat="48.21933562" lon="11.69196828"><ele>495.216187</ele><time>2012-03-25T12:39:54Z</time></trkpt>
<trkpt lat="48.21952522" lon="11.69297260"><ele>493.774292</ele><time>2012-03-25T12:40:02Z</time></trkpt>
<trkpt lat="48.21955321" lon="11.69308241"><ele>493.774292</ele><time>2012-03-25T12:40:03Z</time></trkpt>
<trkpt lat="48.21973225" lon="11.69345758"><ele>494.255005</ele><time>2012-03-25T12:40:07Z</time></trkpt>
<trkpt lat="48.22050288" lon="11.69448428"><ele>493.293579</ele><time>2012-03-25T12:40:21Z</time></trkpt>
<trkpt lat="48.22081083" lon="11.69477320"><ele>492.812988</ele><time>2012-03-25T12:40:26Z</time></trkpt>
<trkpt lat="48.22110579" lon="11.69487010"><ele>492.332397</ele><time>2012-03-25T12:40:30Z</time></trkpt>
<trkpt lat="48.22188514" lon="11.69496079"><ele>492.332397</ele><time>2012-03-25T12:40:40Z</time></trkpt>
<trkpt lat="48.22292718" lon="11.69510035"><ele>491.851685</ele><time>2012-03-25T12:40:54Z</time></trkpt>
<trkpt lat="48.22358851" lon="11.69508928"><ele>491.370972</ele><time>2012-03-25T12:41:03Z</time></trkpt>
<trkpt lat="48.22446400" lon="11.69481989"><ele>490.40979</ele><time>2012-03-25T12:41:15Z</time></trkpt>
<trkpt lat="48.22533622" lon="11.69455125"><ele>489.929077</ele><time>2012-03-25T12:41:27Z</time></trkpt>
<trkpt lat="48.22636074" lon="11.69424606"><ele>488.00647</ele><time>2012-03-25T12:41:41Z</time></trkpt>
<trkpt lat="48.22714177" lon="11.69401087"><ele>488.00647</ele><time>2012-03-25T12:41:52Z</time></trkpt>
<trkpt lat="48.22800930" lon="11.69375564"><ele>487.525635</ele><time>2012-03-25T12:42:04Z</time></trkpt>
<trkpt lat="48.22872377" lon="11.69355288"><ele>488.487183</ele><time>2012-03-25T12:42:14Z</time></trkpt>
<trkpt lat="48.22889116" lon="11.69350301"><ele>487.525635</ele><time>2012-03-25T12:42:17Z</time></trkpt>
<trkpt lat="48.22899040" lon="11.69370007"><ele>488.00647</ele><time>2012-03-25T12:42:21Z</time></trkpt>
<trkpt lat="48.22899107" lon="11.69379193"><ele>488.00647</ele><time>2012-03-25T12:42:22Z</time></trkpt>
<trkpt lat="48.22905854" lon="11.69477966"><ele>488.487183</ele><time>2012-03-25T12:42:31Z</time></trkpt>
<trkpt lat="48.22915066" lon="11.69585749"><ele>488.487183</ele><time>2012-03-25T12:42:41Z</time></trkpt>
<trkpt lat="48.22918016" lon="11.69672317"><ele>488.487183</ele><time>2012-03-25T12:42:49Z</time></trkpt>
<trkpt lat="48.22928871" lon="11.69757485"><ele>488.967773</ele><time>2012-03-25T12:42:57Z</time></trkpt>
<trkpt lat="48.22950077" lon="11.69870029"><ele>488.487183</ele><time>2012-03-25T12:43:08Z</time></trkpt>
<trkpt lat="48.22971602" lon="11.69999387"><ele>488.967773</ele><time>2012-03-25T12:43:20Z</time></trkpt>
<trkpt lat="48.22975156" lon="11.70108519"><ele>488.487183</ele><time>2012-03-25T12:43:30Z</time></trkpt>
<trkpt lat="48.22978307" lon="11.70222069"><ele>488.00647</ele><time>2012-03-25T12:43:41Z</time></trkpt>
<trkpt lat="48.22983479" lon="11.70335258"><ele>487.525635</ele><time>2012-03-25T12:43:52Z</time></trkpt>
<trkpt lat="48.22984963" lon="11.70377629"><ele>487.525635</ele><time>2012-03-25T12:43:56Z</time></trkpt>
<trkpt lat="48.22983496" lon="11.70423126"><ele>487.525635</ele><time>2012-03-25T12:44:00Z</time></trkpt>
<trkpt lat="48.22988408" lon="11.70522133"><ele>488.00647</ele><time>2012-03-25T12:44:09Z</time></trkpt>
<trkpt lat="48.22992289" lon="11.70653377"><ele>487.525635</ele><time>2012-03-25T12:44:21Z</time></trkpt>
<trkpt lat="48.22997603" lon="11.70747640"><ele>488.00647</ele><time>2012-03-25T12:44:30Z</time></trkpt>
<trkpt lat="48.22999430" lon="11.70867425"><ele>488.487183</ele><time>2012-03-25T12:44:41Z</time></trkpt>
<trkpt lat="48.23004887" lon="11.71008962"><ele>488.967773</ele><time>2012-03-25T12:44:54Z</time></trkpt>
<trkpt lat="48.23010075" lon="11.71146551"><ele>489.448364</ele><time>2012-03-25T12:45:07Z</time></trkpt>
<trkpt lat="48.23015347" lon="11.71288440"><ele>489.929077</ele><time>2012-03-25T12:45:21Z</time></trkpt>
<trkpt lat="48.23031893" lon="11.71316989"><ele>489.929077</ele><time>2012-03-25T12:45:25Z</time></trkpt>
<trkpt lat="48.23039495" lon="11.71317634"><ele>489.929077</ele><time>2012-03-25T12:45:26Z</time></trkpt>
<trkpt lat="48.23135477" lon="11.71322437"><ele>490.40979</ele><time>2012-03-25T12:45:39Z</time></trkpt>
<trkpt lat="48.23232304" lon="11.71330886"><ele>489.448364</ele><time>2012-03-25T12:45:52Z</time></trkpt>
<trkpt lat="48.23275144" lon="11.71365076"><ele>488.967773</ele><time>2012-03-25T12:45:58Z</time></trkpt>
<trkpt lat="48.23354194" lon="11.71445123"><ele>488.967773</ele><time>2012-03-25T12:46:10Z</time></trkpt>
<trkpt lat="48.23429472" lon="11.71520183"><ele>489.929077</ele><time>2012-03-25T12:46:22Z</time></trkpt>
<trkpt lat="48.23536333" lon="11.71626465"><ele>488.967773</ele><time>2012-03-25T12:46:39Z</time></trkpt>
<trkpt lat="48.23577655" lon="11.71670420"><ele>489.929077</ele><time>2012-03-25T12:46:46Z</time></trkpt>
<trkpt lat="48.23588200" lon="11.71719865"><ele>490.40979</ele><time>2012-03-25T12:46:51Z</time></trkpt>
<trkpt lat="48.23595467" lon="11.71860966"><ele>491.851685</ele><time>2012-03-25T12:47:04Z</time></trkpt>
<trkpt lat="48.23601192" lon="11.71979075"><ele>492.332397</ele><time>2012-03-25T12:47:15Z</time></trkpt>
<trkpt lat="48.23607411" lon="11.72111082"><ele>491.370972</ele><time>2012-03-25T12:47:27Z</time></trkpt>
<trkpt lat="48.23611326" lon="11.72194339"><ele>491.370972</ele><time>2012-03-25T12:47:35Z</time></trkpt>
<trkpt lat="48.23628919" lon="11.72218848"><ele>491.370972</ele><time>2012-03-25T12:47:39Z</time></trkpt>
<trkpt lat="48.23652087" lon="11.72217180"><ele>490.890381</ele><time>2012-03-25T12:47:42Z</time></trkpt>
<trkpt lat="48.23726895" lon="11.72209259"><ele>490.890381</ele><time>2012-03-25T12:47:52Z</time></trkpt>
<trkpt lat="48.23820119" lon="11.72201615"><ele>490.40979</ele><time>2012-03-25T12:48:05Z</time></trkpt>
<trkpt lat="48.23923325" lon="11.72192160"><ele>490.890381</ele><time>2012-03-25T12:48:19Z</time></trkpt>
<trkpt lat="48.24020069" lon="11.72183116"><ele>489.929077</ele><time>2012-03-25T12:48:32Z</time></trkpt>
<trkpt lat="48.24117299" lon="11.72174382"><ele>490.890381</ele><time>2012-03-25T12:48:45Z</time></trkpt>
<trkpt lat="48.24197698" lon="11.72167861"><ele>490.890381</ele><time>2012-03-25T12:48:56Z</time></trkpt>
<trkpt lat="48.24261853" lon="11.72163066"><ele>490.890381</ele><time>2012-03-25T12:49:05Z</time></trkpt>
<trkpt lat="48.24344382" lon="11.72155766"><ele>491.851685</ele><time>2012-03-25T12:49:16Z</time></trkpt>
<trkpt lat="48.24417329" lon="11.72149261"><ele>491.370972</ele><time>2012-03-25T12:49:26Z</time></trkpt>
<trkpt lat="48.24491777" lon="11.72139974"><ele>490.890381</ele><time>2012-03-25T12:49:36Z</time></trkpt>
<trkpt lat="48.24571540" lon="11.72132112"><ele>488.967773</ele><time>2012-03-25T12:49:47Z</time></trkpt>
<trkpt lat="48.24674914" lon="11.72123797"><ele>488.487183</ele><time>2012-03-25T12:50:01Z</time></trkpt>
<trkpt lat="48.24771306" lon="11.72115617"><ele>487.045044</ele><time>2012-03-25T12:50:14Z</time></trkpt>
<trkpt lat="48.24845033" lon="11.72109079"><ele>486.08374</ele><time>2012-03-25T12:50:24Z</time></trkpt>
<trkpt lat="48.24951961" lon="11.72095642"><ele>485.122437</ele><time>2012-03-25T12:50:38Z</time></trkpt>
<trkpt lat="48.25043583" lon="11.72084084"><ele>484.641846</ele><time>2012-03-25T12:50:50Z</time></trkpt>
<trkpt lat="48.25134066" lon="11.72071561"><ele>484.161133</ele><time>2012-03-25T12:51:02Z</time></trkpt>
<trkpt lat="48.25196729" lon="11.72051344"><ele>482.238525</ele><time>2012-03-25T12:51:11Z</time></trkpt>
<trkpt lat="48.25274521" lon="11.72021052"><ele>481.277222</ele><time>2012-03-25T12:51:22Z</time></trkpt>
<trkpt lat="48.25364870" lon="11.71986426"><ele>480.315918</ele><time>2012-03-25T12:51:35Z</time></trkpt>
<trkpt lat="48.25442914" lon="11.71954952"><ele>479.354492</ele><time>2012-03-25T12:51:46Z</time></trkpt>
<trkpt lat="48.25527546" lon="11.71922280"><ele>478.393188</ele><time>2012-03-25T12:51:58Z</time></trkpt>
<trkpt lat="48.25606143" lon="11.71892557"><ele>476.951294</ele><time>2012-03-25T12:52:09Z</time></trkpt>
<trkpt lat="48.25697229" lon="11.71858007"><ele>476.470581</ele><time>2012-03-25T12:52:22Z</time></trkpt>
<trkpt lat="48.25781962" lon="11.71825594"><ele>475.989868</ele><time>2012-03-25T12:52:34Z</time></trkpt>
<trkpt lat="48.25891622" lon="11.71783450"><ele>474.067261</ele><time>2012-03-25T12:52:49Z</time></trkpt>
<trkpt lat="48.25972608" lon="11.71753728"><ele>471.66394</ele><time>2012-03-25T12:53:00Z</time></trkpt>
<trkpt lat="48.26038063" lon="11.71728482"><ele>471.66394</ele><time>2012-03-25T12:53:10Z</time></trkpt>
<trkpt lat="48.26058724" lon="11.71720812"><ele>472.625366</ele><time>2012-03-25T12:53:14Z</time></trkpt>
<trkpt lat="48.26071548" lon="11.71736788"><ele>472.625366</ele><time>2012-03-25T12:53:18Z</time></trkpt>
<trkpt lat="48.26091933" lon="11.71798320"><ele>475.028687</ele><time>2012-03-25T12:53:25Z</time></trkpt>
<trkpt lat="48.26124019" lon="11.71886648"><ele>476.951294</ele><time>2012-03-25T12:53:34Z</time></trkpt>
<trkpt lat="48.26162048" lon="11.71999225"><ele>478.393188</ele><time>2012-03-25T12:53:46Z</time></trkpt>
<trkpt lat="48.26192038" lon="11.72085433"><ele>478.393188</ele><time>2012-03-25T12:53:55Z</time></trkpt>
<trkpt lat="48.26226823" lon="11.72187793"><ele>478.873901</ele><time>2012-03-25T12:54:06Z</time></trkpt>
<trkpt lat="48.26250837" lon="11.72259944"><ele>478.873901</ele><time>2012-03-25T12:54:14Z</time></trkpt>
<trkpt lat="48.26285991" lon="11.72360737"><ele>478.393188</ele><time>2012-03-25T12:54:24Z</time></trkpt>
<trkpt lat="48.26324187" lon="11.72473884"><ele>478.873901</ele><time>2012-03-25T12:54:35Z</time></trkpt>
<trkpt lat="48.26370866" lon="11.72607031"><ele>480.796631</ele><time>2012-03-25T12:54:49Z</time></trkpt>
<trkpt lat="48.26416774" lon="11.72741041"><ele>481.277222</ele><time>2012-03-25T12:55:03Z</time></trkpt>
<trkpt lat="48.26460904" lon="11.72864514"><ele>480.796631</ele><time>2012-03-25T12:55:16Z</time></trkpt>
<trkpt lat="48.26486930" lon="11.72938409"><ele>482.719238</ele><time>2012-03-25T12:55:24Z</time></trkpt>
<trkpt lat="48.26493468" lon="11.72957864"><ele>482.238525</ele><time>2012-03-25T12:55:26Z</time></trkpt>
<trkpt lat="48.26523978" lon="11.73049721"><ele>481.757813</ele><time>2012-03-25T12:55:35Z</time></trkpt>
<trkpt lat="48.26565846" lon="11.73175676"><ele>480.796631</ele><time>2012-03-25T12:55:48Z</time></trkpt>
<trkpt lat="48.26603338" lon="11.73307138"><ele>479.354492</ele><time>2012-03-25T12:56:01Z</time></trkpt>
<trkpt lat="48.26626288" lon="11.73422565"><ele>476.951294</ele><time>2012-03-25T12:56:11Z</time></trkpt>
<trkpt lat="48.26649447" lon="11.73506535"><ele>478.873901</ele><time>2012-03-25T12:56:20Z</time></trkpt>
<trkpt lat="48.26673109" lon="11.73609163"><ele>479.354492</ele><time>2012-03-25T12:56:30Z</time></trkpt>
<trkpt lat="48.26672497" lon="11.73674357"><ele>479.835083</ele><time>2012-03-25T12:56:36Z</time></trkpt>
<trkpt lat="48.26665607" lon="11.73785736"><ele>480.315918</ele><time>2012-03-25T12:56:47Z</time></trkpt>
<trkpt lat="48.26659614" lon="11.73857032"><ele>482.238525</ele><time>2012-03-25T12:56:53Z</time></trkpt>
<trkpt lat="48.26650294" lon="11.73939250"><ele>482.719238</ele><time>2012-03-25T12:56:58Z</time></trkpt>
<trkpt lat="48.26632557" lon="11.74089345"><ele>482.719238</ele><time>2012-03-25T12:57:06Z</time></trkpt>
<trkpt lat="48.26610203" lon="11.74295314"><ele>483.68042</ele><time>2012-03-25T12:57:17Z</time></trkpt>
<trkpt lat="48.26603514" lon="11.74429927"><ele>483.199829</ele><time>2012-03-25T12:57:25Z</time></trkpt>
<trkpt lat="48.26609231" lon="11.74531315"><ele>481.757813</ele><time>2012-03-25T12:57:32Z</time></trkpt>
<trkpt lat="48.26624402" lon="11.74630062"><ele>480.796631</ele><time>2012-03-25T12:57:40Z</time></trkpt>
<trkpt lat="48.26631946" lon="11.74703152"><ele>480.315918</ele><time>2012-03-25T12:57:47Z</time></trkpt>
<trkpt lat="48.26632365" lon="11.74735229"><ele>481.277222</ele><time>2012-03-25T12:57:50Z</time></trkpt>
<trkpt lat="48.26629850" lon="11.74759780"><ele>481.757813</ele><time>2012-03-25T12:57:54Z</time></trkpt>
<trkpt lat="48.26660880" lon="11.74777072"><ele>481.277222</ele><time>2012-03-25T12:58:00Z</time></trkpt>
<trkpt lat="48.26726426" lon="11.74836659"><ele>477.431885</ele><time>2012-03-25T12:58:10Z</time></trkpt>
<trkpt lat="48.26792744" lon="11.74900244"><ele>475.509277</ele><time>2012-03-25T12:58:21Z</time></trkpt>
<trkpt lat="48.26865817" lon="11.74965229"><ele>474.547974</ele><time>2012-03-25T12:58:33Z</time></trkpt>
<trkpt lat="48.26913569" lon="11.74981507"><ele>475.028687</ele><time>2012-03-25T12:58:40Z</time></trkpt>
<trkpt lat="48.26927911" lon="11.74982462"><ele>474.547974</ele><time>2012-03-25T12:58:42Z</time></trkpt>
<trkpt lat="48.27022710" lon="11.74961784"><ele>476.951294</ele><time>2012-03-25T12:58:55Z</time></trkpt>
<trkpt lat="48.27131289" lon="11.74933394"><ele>475.989868</ele><time>2012-03-25T12:59:10Z</time></trkpt>
<trkpt lat="48.27207564" lon="11.74913387"><ele>477.431885</ele><time>2012-03-25T12:59:21Z</time></trkpt>
<trkpt lat="48.27234588" lon="11.74907570"><ele>477.912476</ele><time>2012-03-25T12:59:26Z</time></trkpt>
<trkpt lat="48.27253807" lon="11.74922339"><ele>476.951294</ele><time>2012-03-25T12:59:30Z</time></trkpt>
<trkpt lat="48.27291643" lon="11.74973116"><ele>475.509277</ele><time>2012-03-25T12:59:37Z</time></trkpt>
<trkpt lat="48.27329848" lon="11.75028588"><ele>475.989868</ele><time>2012-03-25T12:59:44Z</time></trkpt>
<trkpt lat="48.27356620" lon="11.75036442"><ele>475.989868</ele><time>2012-03-25T12:59:48Z</time></trkpt>
<trkpt lat="48.27390575" lon="11.75016224"><ele>474.547974</ele><time>2012-03-25T12:59:53Z</time></trkpt>
<trkpt lat="48.27410113" lon="11.75027875"><ele>473.58667</ele><time>2012-03-25T12:59:56Z</time></trkpt>
<trkpt lat="48.27464889" lon="11.75092801"><ele>475.028687</ele><time>2012-03-25T13:00:05Z</time></trkpt>
<trkpt lat="48.27507838" lon="11.75128894"><ele>475.028687</ele><time>2012-03-25T13:00:12Z</time></trkpt>
<trkpt lat="48.27580886" lon="11.75143587"><ele>473.106079</ele><time>2012-03-25T13:00:22Z</time></trkpt>
<trkpt lat="48.27694561" lon="11.75155699"><ele>473.58667</ele><time>2012-03-25T13:00:37Z</time></trkpt>
<trkpt lat="48.27776461" lon="11.75163486"><ele>470.702637</ele><time>2012-03-25T13:00:48Z</time></trkpt>
<trkpt lat="48.27867622" lon="11.75170778"><ele>466.376709</ele><time>2012-03-25T13:01:00Z</time></trkpt>
<trkpt lat="48.27948022" lon="11.75177333"><ele>465.896118</ele><time>2012-03-25T13:01:11Z</time></trkpt>
<trkpt lat="48.28056718" lon="11.75193401"><ele>468.299316</ele><time>2012-03-25T13:01:25Z</time></trkpt>
<trkpt lat="48.28158332" lon="11.75199595"><ele>468.780029</ele><time>2012-03-25T13:01:38Z</time></trkpt>
<trkpt lat="48.28262083" lon="11.75197072"><ele>471.66394</ele><time>2012-03-25T13:01:51Z</time></trkpt>
<trkpt lat="48.28362733" lon="11.75196134"><ele>473.106079</ele><time>2012-03-25T13:02:04Z</time></trkpt>
<trkpt lat="48.28464230" lon="11.75196653"><ele>472.625366</ele><time>2012-03-25T13:02:17Z</time></trkpt>
<trkpt lat="48.28573907" lon="11.75197022"><ele>471.66394</ele><time>2012-03-25T13:02:31Z</time></trkpt>
<trkpt lat="48.28673928" lon="11.75198413"><ele>470.221924</ele><time>2012-03-25T13:02:44Z</time></trkpt>
<trkpt lat="48.28767772" lon="11.75198749"><ele>471.18335</ele><time>2012-03-25T13:02:56Z</time></trkpt>
<trkpt lat="48.28870492" lon="11.75198765"><ele>472.144653</ele><time>2012-03-25T13:03:09Z</time></trkpt>
<trkpt lat="48.28958385" lon="11.75199495"><ele>472.144653</ele><time>2012-03-25T13:03:20Z</time></trkpt>
<trkpt lat="48.29050996" lon="11.75201875"><ele>470.702637</ele><time>2012-03-25T13:03:32Z</time></trkpt>
<trkpt lat="48.29135000" lon="11.75202990"><ele>469.741333</ele><time>2012-03-25T13:03:43Z</time></trkpt>
<trkpt lat="48.29225323" lon="11.75203837"><ele>468.299316</ele><time>2012-03-25T13:03:55Z</time></trkpt>
<trkpt lat="48.29332746" lon="11.75203560"><ele>467.818726</ele><time>2012-03-25T13:04:09Z</time></trkpt>
<trkpt lat="48.29415844" lon="11.75203635"><ele>467.818726</ele><time>2012-03-25T13:04:20Z</time></trkpt>
<trkpt lat="48.29506050" lon="11.75204038"><ele>467.818726</ele><time>2012-03-25T13:04:32Z</time></trkpt>
<trkpt lat="48.29612886" lon="11.75204365"><ele>466.376709</ele><time>2012-03-25T13:04:46Z</time></trkpt>
<trkpt lat="48.29695732" lon="11.75197458"><ele>467.818726</ele><time>2012-03-25T13:04:57Z</time></trkpt>
<trkpt lat="48.29724717" lon="11.75189227"><ele>467.818726</ele><time>2012-03-25T13:05:01Z</time></trkpt>
<trkpt lat="48.29799266" lon="11.75145037"><ele>466.376709</ele><time>2012-03-25T13:05:12Z</time></trkpt>
<trkpt lat="48.29874015" lon="11.75099683"><ele>466.857422</ele><time>2012-03-25T13:05:23Z</time></trkpt>
<trkpt lat="48.29950836" lon="11.75063280"><ele>465.896118</ele><time>2012-03-25T13:05:34Z</time></trkpt>
<trkpt lat="48.30016156" lon="11.75043306"><ele>465.415527</ele><time>2012-03-25T13:05:43Z</time></trkpt>
<trkpt lat="48.30114492" lon="11.75032100"><ele>464.454102</ele><time>2012-03-25T13:05:56Z</time></trkpt>
<trkpt lat="48.30219224" lon="11.75019066"><ele>464.454102</ele><time>2012-03-25T13:06:10Z</time></trkpt>
<trkpt lat="48.30301316" lon="11.75011715"><ele>465.415527</ele><time>2012-03-25T13:06:21Z</time></trkpt>
<trkpt lat="48.30330276" lon="11.75009251"><ele>465.415527</ele><time>2012-03-25T13:06:25Z</time></trkpt>
<trkpt lat="48.30361079" lon="11.74983946"><ele>464.934814</ele><time>2012-03-25T13:06:30Z</time></trkpt>
<trkpt lat="48.30365472" lon="11.74975757"><ele>465.415527</ele><time>2012-03-25T13:06:31Z</time></trkpt>
<trkpt lat="48.30402561" lon="11.74894519"><ele>464.934814</ele><time>2012-03-25T13:06:40Z</time></trkpt>
<trkpt lat="48.30409938" lon="11.74852434"><ele>464.454102</ele><time>2012-03-25T13:06:44Z</time></trkpt>
<trkpt lat="48.30431412" lon="11.74826148"><ele>463.973389</ele><time>2012-03-25T13:06:48Z</time></trkpt>
<trkpt lat="48.30447162" lon="11.74830297"><ele>463.492798</ele><time>2012-03-25T13:06:50Z</time></trkpt>
<trkpt lat="48.30520193" lon="11.74853238"><ele>463.492798</ele><time>2012-03-25T13:07:00Z</time></trkpt>
<trkpt lat="48.30615076" lon="11.74877219"><ele>462.050781</ele><time>2012-03-25T13:07:13Z</time></trkpt>
<trkpt lat="48.30689901" lon="11.74876079"><ele>461.57019</ele><time>2012-03-25T13:07:23Z</time></trkpt>
<trkpt lat="48.30742029" lon="11.74887084"><ele>461.089478</ele><time>2012-03-25T13:07:30Z</time></trkpt>
<trkpt lat="48.30793443" lon="11.74902423"><ele>461.57019</ele><time>2012-03-25T13:07:37Z</time></trkpt>
<trkpt lat="48.30820299" lon="11.74905231"><ele>462.050781</ele><time>2012-03-25T13:07:40Z</time></trkpt>
<trkpt lat="48.30891469" lon="11.74900789"><ele>461.57019</ele><time>2012-03-25T13:07:49Z</time></trkpt>
<trkpt lat="48.30972631" lon="11.74895760"><ele>461.089478</ele><time>2012-03-25T13:08:00Z</time></trkpt>
<trkpt lat="48.31026871" lon="11.74890747"><ele>461.57019</ele><time>2012-03-25T13:08:08Z</time></trkpt>
<trkpt lat="48.31034373" lon="11.74891954"><ele>461.57019</ele><time>2012-03-25T13:08:10Z</time></trkpt>
<trkpt lat="48.31060231" lon="11.74987860"><ele>463.492798</ele><time>2012-03-25T13:08:23Z</time></trkpt>
<trkpt lat="48.31083549" lon="11.75069877"><ele>463.492798</ele><time>2012-03-25T13:08:32Z</time></trkpt>
<trkpt lat="48.31116012" lon="11.75183787"><ele>462.050781</ele><time>2012-03-25T13:08:44Z</time></trkpt>
<trkpt lat="48.31147738" lon="11.75292777"><ele>462.531372</ele><time>2012-03-25T13:08:55Z</time></trkpt>
<trkpt lat="48.31200695" lon="11.75473399"><ele>462.050781</ele><time>2012-03-25T13:09:13Z</time></trkpt>
<trkpt lat="48.31270658" lon="11.75701219"><ele>460.608765</ele><time>2012-03-25T13:09:36Z</time></trkpt>
<trkpt lat="48.31316968" lon="11.75816084"><ele>462.050781</ele><time>2012-03-25T13:09:48Z</time></trkpt>
<trkpt lat="48.31368760" lon="11.75931763"><ele>461.57019</ele><time>2012-03-25T13:10:00Z</time></trkpt>
<trkpt lat="48.31420074" lon="11.76055882"><ele>462.050781</ele><time>2012-03-25T13:10:13Z</time></trkpt>
<trkpt lat="48.31448145" lon="11.76147195"><ele>461.57019</ele><time>2012-03-25T13:10:22Z</time></trkpt>
<trkpt lat="48.31464423" lon="11.76245640"><ele>462.050781</ele><time>2012-03-25T13:10:31Z</time></trkpt>
<trkpt lat="48.31467214" lon="11.76349123"><ele>462.531372</ele><time>2012-03-25T13:10:40Z</time></trkpt>
<trkpt lat="48.31457156" lon="11.76464374"><ele>462.050781</ele><time>2012-03-25T13:10:50Z</time></trkpt>
<trkpt lat="48.31440719" lon="11.76612918"><ele>462.050781</ele><time>2012-03-25T13:11:03Z</time></trkpt>
<trkpt lat="48.31421843" lon="11.76792643"><ele>461.57019</ele><time>2012-03-25T13:11:19Z</time></trkpt>
<trkpt lat="48.31403411" lon="11.76960767"><ele>462.050781</ele><time>2012-03-25T13:11:34Z</time></trkpt>
<trkpt lat="48.31390939" lon="11.77120945"><ele>461.57019</ele><time>2012-03-25T13:11:48Z</time></trkpt>
<trkpt lat="48.31394761" lon="11.77239005"><ele>462.050781</ele><time>2012-03-25T13:11:58Z</time></trkpt>
<trkpt lat="48.31409966" lon="11.77362369"><ele>462.050781</ele><time>2012-03-25T13:12:09Z</time></trkpt>
<trkpt lat="48.31426721" lon="11.77497704"><ele>462.531372</ele><time>2012-03-25T13:12:21Z</time></trkpt>
<trkpt lat="48.31429143" lon="11.77600256"><ele>463.973389</ele><time>2012-03-25T13:12:30Z</time></trkpt>
<trkpt lat="48.31426520" lon="11.77755782"><ele>464.454102</ele><time>2012-03-25T13:12:44Z</time></trkpt>
<trkpt lat="48.31421005" lon="11.78011598"><ele>463.973389</ele><time>2012-03-25T13:13:07Z</time></trkpt>
<trkpt lat="48.31417970" lon="11.78190057"><ele>463.012085</ele><time>2012-03-25T13:13:23Z</time></trkpt>
<trkpt lat="48.31413570" lon="11.78344192"><ele>463.492798</ele><time>2012-03-25T13:13:37Z</time></trkpt>
<trkpt lat="48.31408549" lon="11.78475377"><ele>463.973389</ele><time>2012-03-25T13:13:49Z</time></trkpt>
<trkpt lat="48.31401039" lon="11.78607660"><ele>464.934814</ele><time>2012-03-25T13:14:01Z</time></trkpt>
<trkpt lat="48.31385549" lon="11.78774142"><ele>464.934814</ele><time>2012-03-25T13:14:16Z</time></trkpt>
<trkpt lat="48.31365667" lon="11.78906676"><ele>463.973389</ele><time>2012-03-25T13:14:28Z</time></trkpt>
<trkpt lat="48.31335979" lon="11.79058758"><ele>463.973389</ele><time>2012-03-25T13:14:42Z</time></trkpt>
<trkpt lat="48.31309165" lon="11.79175375"><ele>463.012085</ele><time>2012-03-25T13:14:53Z</time></trkpt>
<trkpt lat="48.31273131" lon="11.79319996"><ele>461.57019</ele><time>2012-03-25T13:15:07Z</time></trkpt>
<trkpt lat="48.31241959" lon="11.79458331"><ele>462.050781</ele><time>2012-03-25T13:15:20Z</time></trkpt>
<trkpt lat="48.31214290" lon="11.79595803"><ele>461.57019</ele><time>2012-03-25T13:15:33Z</time></trkpt>
<trkpt lat="48.31185213" lon="11.79745462"><ele>463.492798</ele><time>2012-03-25T13:15:47Z</time></trkpt>
<trkpt lat="48.31152281" lon="11.79879631"><ele>465.415527</ele><time>2012-03-25T13:16:00Z</time></trkpt>
<trkpt lat="48.31115115" lon="11.79999752"><ele>465.896118</ele><time>2012-03-25T13:16:12Z</time></trkpt>
<trkpt lat="48.31071731" lon="11.80139311"><ele>463.012085</ele><time>2012-03-25T13:16:26Z</time></trkpt>
<trkpt lat="48.31032545" lon="11.80278031"><ele>461.57019</ele><time>2012-03-25T13:16:39Z</time></trkpt>
<trkpt lat="48.31001876" lon="11.80419459"><ele>460.128174</ele><time>2012-03-25T13:16:52Z</time></trkpt>
<trkpt lat="48.30986160" lon="11.80533998"><ele>459.647583</ele><time>2012-03-25T13:17:03Z</time></trkpt>
<trkpt lat="48.30978650" lon="11.80613810"><ele>459.647583</ele><time>2012-03-25T13:17:10Z</time></trkpt>
<trkpt lat="48.30972799" lon="11.80722532"><ele>460.128174</ele><time>2012-03-25T13:17:20Z</time></trkpt>
<trkpt lat="48.30972313" lon="11.80832569"><ele>460.128174</ele><time>2012-03-25T13:17:30Z</time></trkpt>
<trkpt lat="48.30978541" lon="11.80976713"><ele>460.128174</ele><time>2012-03-25T13:17:43Z</time></trkpt>
<trkpt lat="48.30982707" lon="11.81099399"><ele>460.128174</ele><time>2012-03-25T13:17:54Z</time></trkpt>
<trkpt lat="48.30982941" lon="11.81220015"><ele>460.608765</ele><time>2012-03-25T13:18:05Z</time></trkpt>
<trkpt lat="48.30975959" lon="11.81334042"><ele>460.608765</ele><time>2012-03-25T13:18:15Z</time></trkpt>
<trkpt lat="48.30960520" lon="11.81448539"><ele>460.608765</ele><time>2012-03-25T13:18:25Z</time></trkpt>
<trkpt lat="48.30941409" lon="11.81545937"><ele>459.16687</ele><time>2012-03-25T13:18:34Z</time></trkpt>
<trkpt lat="48.30923849" lon="11.81632589"><ele>459.16687</ele><time>2012-03-25T13:18:42Z</time></trkpt>
<trkpt lat="48.30903791" lon="11.81725628"><ele>460.608765</ele><time>2012-03-25T13:18:51Z</time></trkpt>
<trkpt lat="48.30887706" lon="11.81798165"><ele>461.57019</ele><time>2012-03-25T13:18:58Z</time></trkpt>
<trkpt lat="48.30875074" lon="11.81860442"><ele>461.57019</ele><time>2012-03-25T13:19:04Z</time></trkpt>
<trkpt lat="48.30856584" lon="11.81946357"><ele>462.050781</ele><time>2012-03-25T13:19:12Z</time></trkpt>
<trkpt lat="48.30822755" lon="11.82058783"><ele>462.050781</ele><time>2012-03-25T13:19:23Z</time></trkpt>
<trkpt lat="48.30786201" lon="11.82159165"><ele>462.050781</ele><time>2012-03-25T13:19:33Z</time></trkpt>
<trkpt lat="48.30746815" lon="11.82284139"><ele>462.050781</ele><time>2012-03-25T13:19:45Z</time></trkpt>
<trkpt lat="48.30719892" lon="11.82389718"><ele>462.531372</ele><time>2012-03-25T13:19:55Z</time></trkpt>
<trkpt lat="48.30688602" lon="11.82515496"><ele>463.012085</ele><time>2012-03-25T13:20:07Z</time></trkpt>
<trkpt lat="48.30657170" lon="11.82639859"><ele>463.492798</ele><time>2012-03-25T13:20:19Z</time></trkpt>
<trkpt lat="48.30632385" lon="11.82753425"><ele>463.492798</ele><time>2012-03-25T13:20:30Z</time></trkpt>
<trkpt lat="48.30615235" lon="11.82858400"><ele>463.012085</ele><time>2012-03-25T13:20:40Z</time></trkpt>
<trkpt lat="48.30601439" lon="11.82989392"><ele>464.934814</ele><time>2012-03-25T13:20:52Z</time></trkpt>
<trkpt lat="48.30590568" lon="11.83122992"><ele>464.934814</ele><time>2012-03-25T13:21:04Z</time></trkpt>
<trkpt lat="48.30570216" lon="11.83252232"><ele>463.492798</ele><time>2012-03-25T13:21:16Z</time></trkpt>
<trkpt lat="48.30540645" lon="11.83356126"><ele>463.973389</ele><time>2012-03-25T13:21:26Z</time></trkpt>
<trkpt lat="48.30503463" lon="11.83467362"><ele>464.934814</ele><time>2012-03-25T13:21:37Z</time></trkpt>
<trkpt lat="48.30477051" lon="11.83570736"><ele>465.415527</ele><time>2012-03-25T13:21:47Z</time></trkpt>
<trkpt lat="48.30466063" lon="11.83670648"><ele>465.415527</ele><time>2012-03-25T13:21:56Z</time></trkpt>
<trkpt lat="48.30463121" lon="11.83793242"><ele>464.934814</ele><time>2012-03-25T13:22:07Z</time></trkpt>
<trkpt lat="48.30459299" lon="11.83946882"><ele>465.415527</ele><time>2012-03-25T13:22:21Z</time></trkpt>
<trkpt lat="48.30456583" lon="11.84068512"><ele>465.896118</ele><time>2012-03-25T13:22:32Z</time></trkpt>
<trkpt lat="48.30454144" lon="11.84200267"><ele>465.896118</ele><time>2012-03-25T13:22:44Z</time></trkpt>
<trkpt lat="48.30453733" lon="11.84343170"><ele>465.896118</ele><time>2012-03-25T13:22:57Z</time></trkpt>
<trkpt lat="48.30461394" lon="11.84457181"><ele>464.934814</ele><time>2012-03-25T13:23:07Z</time></trkpt>
<trkpt lat="48.30470715" lon="11.84543381"><ele>466.857422</ele><time>2012-03-25T13:23:15Z</time></trkpt>
<trkpt lat="48.30475844" lon="11.84561159"><ele>467.338135</ele><time>2012-03-25T13:23:17Z</time></trkpt>
<trkpt lat="48.30485861" lon="11.84642832"><ele>467.818726</ele><time>2012-03-25T13:23:26Z</time></trkpt>
<trkpt lat="48.30492944" lon="11.84724270"><ele>469.260742</ele><time>2012-03-25T13:23:35Z</time></trkpt>
<trkpt lat="48.30481376" lon="11.84751721"><ele>469.260742</ele><time>2012-03-25T13:23:39Z</time></trkpt>
<trkpt lat="48.30475140" lon="11.84753255"><ele>468.780029</ele><time>2012-03-25T13:23:40Z</time></trkpt>
<trkpt lat="48.30403467" lon="11.84753129"><ele>465.896118</ele><time>2012-03-25T13:23:51Z</time></trkpt>
<trkpt lat="48.30332388" lon="11.84751361"><ele>467.818726</ele><time>2012-03-25T13:24:02Z</time></trkpt>
<trkpt lat="48.30300545" lon="11.84742417"><ele>468.299316</ele><time>2012-03-25T13:24:07Z</time></trkpt>
<trkpt lat="48.30250363" lon="11.84700139"><ele>468.299316</ele><time>2012-03-25T13:24:16Z</time></trkpt>
<trkpt lat="48.30203743" lon="11.84676141"><ele>466.857422</ele><time>2012-03-25T13:24:24Z</time></trkpt>
<trkpt lat="48.30146126" lon="11.84674566"><ele>468.780029</ele><time>2012-03-25T13:24:33Z</time></trkpt>
<trkpt lat="48.30086530" lon="11.84680550"><ele>470.702637</ele><time>2012-03-25T13:24:42Z</time></trkpt>
<trkpt lat="48.30006265" lon="11.84688580"><ele>471.18335</ele><time>2012-03-25T13:24:54Z</time></trkpt>
<trkpt lat="48.29937198" lon="11.84705168"><ele>470.221924</ele><time>2012-03-25T13:25:04Z</time></trkpt>
<trkpt lat="48.29850144" lon="11.84734387"><ele>469.260742</ele><time>2012-03-25T13:25:16Z</time></trkpt>
<trkpt lat="48.29760181" lon="11.84764554"><ele>469.741333</ele><time>2012-03-25T13:25:28Z</time></trkpt>
<trkpt lat="48.29669757" lon="11.84795047"><ele>470.221924</ele><time>2012-03-25T13:25:40Z</time></trkpt>
<trkpt lat="48.29584857" lon="11.84835968"><ele>471.18335</ele><time>2012-03-25T13:25:51Z</time></trkpt>
<trkpt lat="48.29511800" lon="11.84876209"><ele>475.028687</ele><time>2012-03-25T13:26:01Z</time></trkpt>
<trkpt lat="48.29435633" lon="11.84900936"><ele>476.951294</ele><time>2012-03-25T13:26:12Z</time></trkpt>
<trkpt lat="48.29359300" lon="11.84916727"><ele>477.912476</ele><time>2012-03-25T13:26:23Z</time></trkpt>
<trkpt lat="48.29289939" lon="11.84926777"><ele>477.431885</ele><time>2012-03-25T13:26:33Z</time></trkpt>
<trkpt lat="48.29200706" lon="11.84928169"><ele>476.951294</ele><time>2012-03-25T13:26:46Z</time></trkpt>
<trkpt lat="48.29137984" lon="11.84911673"><ele>476.470581</ele><time>2012-03-25T13:26:55Z</time></trkpt>
<trkpt lat="48.29060602" lon="11.84869001"><ele>474.067261</ele><time>2012-03-25T13:27:06Z</time></trkpt>
<trkpt lat="48.28962701" lon="11.84814401"><ele>472.625366</ele><time>2012-03-25T13:27:20Z</time></trkpt>
<trkpt lat="48.28898521" lon="11.84800252"><ele>473.106079</ele><time>2012-03-25T13:27:29Z</time></trkpt>
<trkpt lat="48.28808634" lon="11.84798668"><ele>471.18335</ele><time>2012-03-25T13:27:42Z</time></trkpt>
<trkpt lat="48.28728528" lon="11.84785659"><ele>474.067261</ele><time>2012-03-25T13:27:53Z</time></trkpt>
<trkpt lat="48.28659846" lon="11.84756960"><ele>475.989868</ele><time>2012-03-25T13:28:03Z</time></trkpt>
<trkpt lat="48.28586639" lon="11.84706576"><ele>476.951294</ele><time>2012-03-25T13:28:15Z</time></trkpt>
<trkpt lat="48.28531754" lon="11.84653167"><ele>478.393188</ele><time>2012-03-25T13:28:25Z</time></trkpt>
<trkpt lat="48.28472050" lon="11.84593798"><ele>478.873901</ele><time>2012-03-25T13:28:36Z</time></trkpt>
<trkpt lat="48.28402304" lon="11.84535963"><ele>476.470581</ele><time>2012-03-25T13:28:48Z</time></trkpt>
<trkpt lat="48.28332743" lon="11.84491647"><ele>475.509277</ele><time>2012-03-25T13:28:59Z</time></trkpt>
<trkpt lat="48.28254783" lon="11.84455018"><ele>475.028687</ele><time>2012-03-25T13:29:10Z</time></trkpt>
<trkpt lat="48.28166555" lon="11.84426419"><ele>473.106079</ele><time>2012-03-25T13:29:22Z</time></trkpt>
<trkpt lat="48.28091369" lon="11.84413771"><ele>473.58667</ele><time>2012-03-25T13:29:32Z</time></trkpt>
<trkpt lat="48.28076231" lon="11.84410242"><ele>473.106079</ele><time>2012-03-25T13:29:34Z</time></trkpt>
<trkpt lat="48.28022855" lon="11.84415498"><ele>473.58667</ele><time>2012-03-25T13:29:41Z</time></trkpt>
<trkpt lat="48.27961994" lon="11.84416998"><ele>472.625366</ele><time>2012-03-25T13:29:49Z</time></trkpt>
<trkpt lat="48.27861671" lon="11.84420343"><ele>473.106079</ele><time>2012-03-25T13:30:03Z</time></trkpt>
<trkpt lat="48.27778053" lon="11.84435363"><ele>474.067261</ele><time>2012-03-25T13:30:15Z</time></trkpt>
<trkpt lat="48.27718475" lon="11.84452387"><ele>474.547974</ele><time>2012-03-25T13:30:25Z</time></trkpt>
<trkpt lat="48.27706086" lon="11.84457500"><ele>474.067261</ele><time>2012-03-25T13:30:30Z</time></trkpt>
<trkpt lat="48.27692231" lon="11.84463333"><ele>474.067261</ele><time>2012-03-25T13:30:39Z</time></trkpt>
<trkpt lat="48.27647271" lon="11.84608500"><ele>474.067261</ele><time>2012-03-25T13:30:57Z</time></trkpt>
<trkpt lat="48.27610625" lon="11.84669805"><ele>473.58667</ele><time>2012-03-25T13:31:05Z</time></trkpt>
<trkpt lat="48.27587533" lon="11.84691824"><ele>474.067261</ele><time>2012-03-25T13:31:09Z</time></trkpt>
<trkpt lat="48.27575253" lon="11.84700474"><ele>474.067261</ele><time>2012-03-25T13:31:11Z</time></trkpt>
<trkpt lat="48.27496313" lon="11.84731546"><ele>475.989868</ele><time>2012-03-25T13:31:23Z</time></trkpt>
<trkpt lat="48.27419124" lon="11.84759022"><ele>474.547974</ele><time>2012-03-25T13:31:35Z</time></trkpt>
<trkpt lat="48.27346251" lon="11.84787009"><ele>474.547974</ele><time>2012-03-25T13:31:46Z</time></trkpt>
<trkpt lat="48.27278651" lon="11.84800713"><ele>475.509277</ele><time>2012-03-25T13:31:56Z</time></trkpt>
<trkpt lat="48.27271678" lon="11.84801912"><ele>475.989868</ele><time>2012-03-25T13:31:57Z</time></trkpt>
<trkpt lat="48.27245476" lon="11.84788585"><ele>475.509277</ele><time>2012-03-25T13:32:01Z</time></trkpt>
<trkpt lat="48.27241796" lon="11.84779541"><ele>475.509277</ele><time>2012-03-25T13:32:02Z</time></trkpt>
<trkpt lat="48.27204815" lon="11.84678421"><ele>475.509277</ele><time>2012-03-25T13:32:13Z</time></trkpt>
<trkpt lat="48.27188118" lon="11.84633788"><ele>475.509277</ele><time>2012-03-25T13:32:18Z</time></trkpt>
<trkpt lat="48.27158907" lon="11.84608659"><ele>475.989868</ele><time>2012-03-25T13:32:23Z</time></trkpt>
<trkpt lat="48.27113268" lon="11.84583873"><ele>478.393188</ele><time>2012-03-25T13:32:30Z</time></trkpt>
<trkpt lat="48.27049255" lon="11.84556339"><ele>477.912476</ele><time>2012-03-25T13:32:40Z</time></trkpt>
<trkpt lat="48.26969828" lon="11.84522459"><ele>478.873901</ele><time>2012-03-25T13:32:52Z</time></trkpt>
<trkpt lat="48.26909563" lon="11.84502686"><ele>479.835083</ele><time>2012-03-25T13:33:01Z</time></trkpt>
<trkpt lat="48.26832617" lon="11.84492620"><ele>480.796631</ele><time>2012-03-25T13:33:12Z</time></trkpt>
<trkpt lat="48.26748236" lon="11.84496266"><ele>481.277222</ele><time>2012-03-25T13:33:24Z</time></trkpt>
<trkpt lat="48.26650755" lon="11.84509627"><ele>480.796631</ele><time>2012-03-25T13:33:38Z</time></trkpt>
<trkpt lat="48.26574898" lon="11.84527673"><ele>481.757813</ele><time>2012-03-25T13:33:49Z</time></trkpt>
<trkpt lat="48.26492412" lon="11.84553875"><ele>480.315918</ele><time>2012-03-25T13:34:01Z</time></trkpt>
<trkpt lat="48.26410035" lon="11.84583848"><ele>481.277222</ele><time>2012-03-25T13:34:13Z</time></trkpt>
<trkpt lat="48.26340943" lon="11.84609908"><ele>482.719238</ele><time>2012-03-25T13:34:23Z</time></trkpt>
<trkpt lat="48.26258205" lon="11.84640669"><ele>481.757813</ele><time>2012-03-25T13:34:35Z</time></trkpt>
<trkpt lat="48.26171637" lon="11.84673241"><ele>479.835083</ele><time>2012-03-25T13:34:47Z</time></trkpt>
<trkpt lat="48.26038507" lon="11.84722745"><ele>478.873901</ele><time>2012-03-25T13:35:04Z</time></trkpt>
<trkpt lat="48.25936558" lon="11.84752123"><ele>480.796631</ele><time>2012-03-25T13:35:16Z</time></trkpt>
<trkpt lat="48.25859318" lon="11.84745066"><ele>481.277222</ele><time>2012-03-25T13:35:25Z</time></trkpt>
<trkpt lat="48.25753547" lon="11.84726123"><ele>477.431885</ele><time>2012-03-25T13:35:37Z</time></trkpt>
<trkpt lat="48.25644080" lon="11.84698798"><ele>477.431885</ele><time>2012-03-25T13:35:49Z</time></trkpt>
<trkpt lat="48.25567947" lon="11.84663292"><ele>479.354492</ele><time>2012-03-25T13:35:58Z</time></trkpt>
<trkpt lat="48.25496349" lon="11.84629186"><ele>480.315918</ele><time>2012-03-25T13:36:08Z</time></trkpt>
<trkpt lat="48.25452503" lon="11.84616622"><ele>480.796631</ele><time>2012-03-25T13:36:15Z</time></trkpt>
<trkpt lat="48.25389538" lon="11.84627317"><ele>482.719238</ele><time>2012-03-25T13:36:25Z</time></trkpt>
<trkpt lat="48.25350319" lon="11.84635087"><ele>483.199829</ele><time>2012-03-25T13:36:31Z</time></trkpt>
<trkpt lat="48.25298569" lon="11.84618943"><ele>486.08374</ele><time>2012-03-25T13:36:39Z</time></trkpt>
<trkpt lat="48.25251723" lon="11.84607913"><ele>486.564453</ele><time>2012-03-25T13:36:46Z</time></trkpt>
<trkpt lat="48.25246023" lon="11.84605407"><ele>486.564453</ele><time>2012-03-25T13:36:47Z</time></trkpt>
<trkpt lat="48.25235764" lon="11.84598005"><ele>486.564453</ele><time>2012-03-25T13:36:49Z</time></trkpt>
<trkpt lat="48.25221447" lon="11.84574628"><ele>486.564453</ele><time>2012-03-25T13:36:52Z</time></trkpt>
<trkpt lat="48.25175825" lon="11.84513943"><ele>485.603027</ele><time>2012-03-25T13:37:00Z</time></trkpt>
<trkpt lat="48.25170100" lon="11.84504790"><ele>485.603027</ele><time>2012-03-25T13:37:01Z</time></trkpt>
<trkpt lat="48.25155172" lon="11.84457617"><ele>484.641846</ele><time>2012-03-25T13:37:05Z</time></trkpt>
<trkpt lat="48.25130244" lon="11.84346741"><ele>480.796631</ele><time>2012-03-25T13:37:14Z</time></trkpt>
<trkpt lat="48.25086482" lon="11.84202421"><ele>479.354492</ele><time>2012-03-25T13:37:26Z</time></trkpt>
<trkpt lat="48.25040608" lon="11.84063542"><ele>479.835083</ele><time>2012-03-25T13:37:38Z</time></trkpt>
<trkpt lat="48.24993795" lon="11.83931435"><ele>479.835083</ele><time>2012-03-25T13:37:50Z</time></trkpt>
<trkpt lat="48.24942313" lon="11.83786159"><ele>478.873901</ele><time>2012-03-25T13:38:03Z</time></trkpt>
<trkpt lat="48.24927209" lon="11.83743252"><ele>479.354492</ele><time>2012-03-25T13:38:07Z</time></trkpt>
<trkpt lat="48.24934652" lon="11.83703480"><ele>479.354492</ele><time>2012-03-25T13:38:11Z</time></trkpt>
<trkpt lat="48.24994004" lon="11.83598220"><ele>480.315918</ele><time>2012-03-25T13:38:23Z</time></trkpt>
<trkpt lat="48.25052803" lon="11.83482030"><ele>479.835083</ele><time>2012-03-25T13:38:35Z</time></trkpt>
<trkpt lat="48.25122155" lon="11.83346151"><ele>480.315918</ele><time>2012-03-25T13:38:49Z</time></trkpt>
<trkpt lat="48.25161550" lon="11.83265199"><ele>480.796631</ele><time>2012-03-25T13:38:57Z</time></trkpt>
<trkpt lat="48.25174542" lon="11.83232543"><ele>480.315918</ele><time>2012-03-25T13:39:00Z</time></trkpt>
<trkpt lat="48.25181876" lon="11.83158631"><ele>479.354492</ele><time>2012-03-25T13:39:06Z</time></trkpt>
<trkpt lat="48.25190174" lon="11.83007975"><ele>475.989868</ele><time>2012-03-25T13:39:18Z</time></trkpt>
<trkpt lat="48.25197651" lon="11.82868601"><ele>475.028687</ele><time>2012-03-25T13:39:29Z</time></trkpt>
<trkpt lat="48.25203921" lon="11.82668994"><ele>476.951294</ele><time>2012-03-25T13:39:45Z</time></trkpt>
<trkpt lat="48.25210995" lon="11.82552326"><ele>477.431885</ele><time>2012-03-25T13:39:55Z</time></trkpt>
<trkpt lat="48.25215287" lon="11.82441576"><ele>477.431885</ele><time>2012-03-25T13:40:03Z</time></trkpt>
<trkpt lat="48.25224624" lon="11.82248449"><ele>476.470581</ele><time>2012-03-25T13:40:15Z</time></trkpt>
<trkpt lat="48.25233425" lon="11.82007595"><ele>476.951294</ele><time>2012-03-25T13:40:30Z</time></trkpt>
<trkpt lat="48.25243844" lon="11.81782776"><ele>477.431885</ele><time>2012-03-25T13:40:44Z</time></trkpt>
<trkpt lat="48.25252569" lon="11.81576354"><ele>476.951294</ele><time>2012-03-25T13:40:57Z</time></trkpt>
<trkpt lat="48.25258948" lon="11.81412865"><ele>478.393188</ele><time>2012-03-25T13:41:07Z</time></trkpt>
<trkpt lat="48.25267942" lon="11.81220283"><ele>478.873901</ele><time>2012-03-25T13:41:19Z</time></trkpt>
<trkpt lat="48.25274915" lon="11.81016301"><ele>479.354492</ele><time>2012-03-25T13:41:32Z</time></trkpt>
<trkpt lat="48.25283390" lon="11.80829887"><ele>478.393188</ele><time>2012-03-25T13:41:45Z</time></trkpt>
<trkpt lat="48.25288360" lon="11.80724912"><ele>478.393188</ele><time>2012-03-25T13:41:54Z</time></trkpt>
<trkpt lat="48.25293465" lon="11.80604783"><ele>478.873901</ele><time>2012-03-25T13:42:04Z</time></trkpt>
<trkpt lat="48.25300774" lon="11.80467169"><ele>478.873901</ele><time>2012-03-25T13:42:15Z</time></trkpt>
<trkpt lat="48.25305778" lon="11.80343167"><ele>479.354492</ele><time>2012-03-25T13:42:25Z</time></trkpt>
<trkpt lat="48.25314688" lon="11.80164859"><ele>479.354492</ele><time>2012-03-25T13:42:40Z</time></trkpt>
<trkpt lat="48.25319390" lon="11.80025375"><ele>478.873901</ele><time>2012-03-25T13:42:52Z</time></trkpt>
<trkpt lat="48.25325785" lon="11.79874870"><ele>479.835083</ele><time>2012-03-25T13:43:05Z</time></trkpt>
<trkpt lat="48.25329725" lon="11.79765771"><ele>479.835083</ele><time>2012-03-25T13:43:14Z</time></trkpt>
<trkpt lat="48.25335542" lon="11.79630303"><ele>479.835083</ele><time>2012-03-25T13:43:25Z</time></trkpt>
<trkpt lat="48.25339372" lon="11.79503443"><ele>479.835083</ele><time>2012-03-25T13:43:35Z</time></trkpt>
<trkpt lat="48.25344862" lon="11.79357220"><ele>480.315918</ele><time>2012-03-25T13:43:47Z</time></trkpt>
<trkpt lat="48.25350646" lon="11.79207360"><ele>482.719238</ele><time>2012-03-25T13:44:00Z</time></trkpt>
<trkpt lat="48.25359103" lon="11.79056344"><ele>480.796631</ele><time>2012-03-25T13:44:13Z</time></trkpt>
<trkpt lat="48.25366069" lon="11.78911882"><ele>479.835083</ele><time>2012-03-25T13:44:25Z</time></trkpt>
<trkpt lat="48.25376286" lon="11.78724437"><ele>482.238525</ele><time>2012-03-25T13:44:41Z</time></trkpt>
<trkpt lat="48.25382338" lon="11.78593570"><ele>483.199829</ele><time>2012-03-25T13:44:52Z</time></trkpt>
<trkpt lat="48.25389094" lon="11.78411851"><ele>480.796631</ele><time>2012-03-25T13:45:07Z</time></trkpt>
<trkpt lat="48.25395288" lon="11.78254606"><ele>480.315918</ele><time>2012-03-25T13:45:20Z</time></trkpt>
<trkpt lat="48.25400250" lon="11.78098552"><ele>480.796631</ele><time>2012-03-25T13:45:33Z</time></trkpt>
<trkpt lat="48.25407928" lon="11.77973201"><ele>476.951294</ele><time>2012-03-25T13:45:44Z</time></trkpt>
<trkpt lat="48.25412211" lon="11.77849316"><ele>477.431885</ele><time>2012-03-25T13:45:55Z</time></trkpt>
<trkpt lat="48.25414265" lon="11.77803442"><ele>478.873901</ele><time>2012-03-25T13:46:01Z</time></trkpt>
<trkpt lat="48.25416871" lon="11.77704007"><ele>479.835083</ele><time>2012-03-25T13:46:13Z</time></trkpt>
<trkpt lat="48.25421683" lon="11.77594456"><ele>480.315918</ele><time>2012-03-25T13:46:22Z</time></trkpt>
<trkpt lat="48.25429159" lon="11.77435786"><ele>479.354492</ele><time>2012-03-25T13:46:35Z</time></trkpt>
<trkpt lat="48.25437047" lon="11.77290805"><ele>479.354492</ele><time>2012-03-25T13:46:47Z</time></trkpt>
<trkpt lat="48.25443274" lon="11.77156543"><ele>477.912476</ele><time>2012-03-25T13:46:58Z</time></trkpt>
<trkpt lat="48.25453274" lon="11.76978629"><ele>478.873901</ele><time>2012-03-25T13:47:12Z</time></trkpt>
<trkpt lat="48.25458454" lon="11.76814604"><ele>478.393188</ele><time>2012-03-25T13:47:25Z</time></trkpt>
<trkpt lat="48.25464472" lon="11.76705111"><ele>478.873901</ele><time>2012-03-25T13:47:34Z</time></trkpt>
<trkpt lat="48.25475679" lon="11.76496854"><ele>478.873901</ele><time>2012-03-25T13:47:51Z</time></trkpt>
<trkpt lat="48.25485276" lon="11.76319049"><ele>478.873901</ele><time>2012-03-25T13:48:05Z</time></trkpt>
<trkpt lat="48.25495351" lon="11.76118713"><ele>478.873901</ele><time>2012-03-25T13:48:21Z</time></trkpt>
<trkpt lat="48.25508511" lon="11.75987025"><ele>478.393188</ele><time>2012-03-25T13:48:32Z</time></trkpt>
<trkpt lat="48.25530631" lon="11.75922736"><ele>478.393188</ele><time>2012-03-25T13:48:38Z</time></trkpt>
<trkpt lat="48.25534989" lon="11.75912719"><ele>478.393188</ele><time>2012-03-25T13:48:39Z</time></trkpt>
<trkpt lat="48.25555357" lon="11.75891203"><ele>478.393188</ele><time>2012-03-25T13:48:42Z</time></trkpt>
<trkpt lat="48.25628774" lon="11.75846821"><ele>478.393188</ele><time>2012-03-25T13:48:51Z</time></trkpt>
<trkpt lat="48.25742223" lon="11.75780838"><ele>476.470581</ele><time>2012-03-25T13:49:05Z</time></trkpt>
<trkpt lat="48.25806848" lon="11.75740790"><ele>475.028687</ele><time>2012-03-25T13:49:14Z</time></trkpt>
<trkpt lat="48.25823754" lon="11.75727303"><ele>475.989868</ele><time>2012-03-25T13:49:17Z</time></trkpt>
<trkpt lat="48.25826746" lon="11.75691722"><ele>475.989868</ele><time>2012-03-25T13:49:21Z</time></trkpt>
<trkpt lat="48.25823653" lon="11.75606520"><ele>476.470581</ele><time>2012-03-25T13:49:29Z</time></trkpt>
<trkpt lat="48.25808449" lon="11.75583998"><ele>476.470581</ele><time>2012-03-25T13:49:33Z</time></trkpt>
<trkpt lat="48.25802489" lon="11.75585347"><ele>476.470581</ele><time>2012-03-25T13:49:34Z</time></trkpt>
<trkpt lat="48.25746532" lon="11.75593268"><ele>476.470581</ele><time>2012-03-25T13:49:42Z</time></trkpt>
<trkpt lat="48.25731075" lon="11.75592472"><ele>476.470581</ele><time>2012-03-25T13:49:44Z</time></trkpt>
<trkpt lat="48.25648245" lon="11.75563051"><ele>476.951294</ele><time>2012-03-25T13:49:55Z</time></trkpt>
<trkpt lat="48.25561719" lon="11.75529390"><ele>476.951294</ele><time>2012-03-25T13:50:06Z</time></trkpt>
<trkpt lat="48.25480331" lon="11.75499751"><ele>477.431885</ele><time>2012-03-25T13:50:17Z</time></trkpt>
<trkpt lat="48.25388909" lon="11.75467338"><ele>476.951294</ele><time>2012-03-25T13:50:29Z</time></trkpt>
<trkpt lat="48.25272602" lon="11.75424675"><ele>479.835083</ele><time>2012-03-25T13:50:44Z</time></trkpt>
<trkpt lat="48.25180544" lon="11.75388037"><ele>480.796631</ele><time>2012-03-25T13:50:56Z</time></trkpt>
<trkpt lat="48.25088318" lon="11.75355398"><ele>479.835083</ele><time>2012-03-25T13:51:08Z</time></trkpt>
<trkpt lat="48.24964760" lon="11.75308937"><ele>479.354492</ele><time>2012-03-25T13:51:24Z</time></trkpt>
<trkpt lat="48.24873171" lon="11.75275896"><ele>478.873901</ele><time>2012-03-25T13:51:36Z</time></trkpt>
<trkpt lat="48.24773418" lon="11.75238144"><ele>481.757813</ele><time>2012-03-25T13:51:49Z</time></trkpt>
<trkpt lat="48.24727535" lon="11.75222620"><ele>481.757813</ele><time>2012-03-25T13:51:56Z</time></trkpt>
<trkpt lat="48.24714468" lon="11.75190459"><ele>481.757813</ele><time>2012-03-25T13:52:00Z</time></trkpt>
<trkpt lat="48.24713387" lon="11.75179336"><ele>482.238525</ele><time>2012-03-25T13:52:01Z</time></trkpt>
<trkpt lat="48.24690940" lon="11.75030239"><ele>484.161133</ele><time>2012-03-25T13:52:14Z</time></trkpt>
<trkpt lat="48.24671594" lon="11.74899532"><ele>484.641846</ele><time>2012-03-25T13:52:25Z</time></trkpt>
<trkpt lat="48.24647119" lon="11.74745841"><ele>484.641846</ele><time>2012-03-25T13:52:38Z</time></trkpt>
<trkpt lat="48.24620750" lon="11.74580340"><ele>484.641846</ele><time>2012-03-25T13:52:52Z</time></trkpt>
<trkpt lat="48.24595629" lon="11.74429885"><ele>485.603027</ele><time>2012-03-25T13:53:05Z</time></trkpt>
<trkpt lat="48.24589619" lon="11.74346309"><ele>486.564453</ele><time>2012-03-25T13:53:12Z</time></trkpt>
<trkpt lat="48.24583459" lon="11.74216742"><ele>486.08374</ele><time>2012-03-25T13:53:23Z</time></trkpt>
<trkpt lat="48.24577256" lon="11.74063965"><ele>484.641846</ele><time>2012-03-25T13:53:35Z</time></trkpt>
<trkpt lat="48.24573191" lon="11.73903451"><ele>482.719238</ele><time>2012-03-25T13:53:47Z</time></trkpt>
<trkpt lat="48.24567030" lon="11.73757154"><ele>482.719238</ele><time>2012-03-25T13:53:58Z</time></trkpt>
<trkpt lat="48.24558992" lon="11.73581268"><ele>482.719238</ele><time>2012-03-25T13:54:11Z</time></trkpt>
<trkpt lat="48.24550434" lon="11.73395097"><ele>482.238525</ele><time>2012-03-25T13:54:25Z</time></trkpt>
<trkpt lat="48.24541884" lon="11.73229018"><ele>482.719238</ele><time>2012-03-25T13:54:37Z</time></trkpt>
<trkpt lat="48.24532421" lon="11.73016126"><ele>483.68042</ele><time>2012-03-25T13:54:52Z</time></trkpt>
<trkpt lat="48.24521567" lon="11.72774853"><ele>485.122437</ele><time>2012-03-25T13:55:09Z</time></trkpt>
<trkpt lat="48.24512104" lon="11.72555817"><ele>486.08374</ele><time>2012-03-25T13:55:24Z</time></trkpt>
<trkpt lat="48.24504820" lon="11.72381574"><ele>486.08374</ele><time>2012-03-25T13:55:36Z</time></trkpt>
<trkpt lat="48.24497276" lon="11.72218496"><ele>487.045044</ele><time>2012-03-25T13:55:48Z</time></trkpt>
<trkpt lat="48.24494460" lon="11.72160937"><ele>487.045044</ele><time>2012-03-25T13:55:53Z</time></trkpt>
<trkpt lat="48.24484837" lon="11.72134358"><ele>487.045044</ele><time>2012-03-25T13:55:57Z</time></trkpt>
<trkpt lat="48.24479498" lon="11.72133973"><ele>487.045044</ele><time>2012-03-25T13:55:58Z</time></trkpt>
<trkpt lat="48.24468149" lon="11.72134182"><ele>486.564453</ele><time>2012-03-25T13:56:00Z</time></trkpt>
<trkpt lat="48.24442944" lon="11.72137979"><ele>487.045044</ele><time>2012-03-25T13:56:04Z</time></trkpt>
<trkpt lat="48.24379954" lon="11.72147091"><ele>488.00647</ele><time>2012-03-25T13:56:13Z</time></trkpt>
<trkpt lat="48.24301416" lon="11.72154358"><ele>488.487183</ele><time>2012-03-25T13:56:24Z</time></trkpt>
<trkpt lat="48.24211629" lon="11.72163100"><ele>487.525635</ele><time>2012-03-25T13:56:36Z</time></trkpt>
<trkpt lat="48.24108993" lon="11.72172404"><ele>485.603027</ele><time>2012-03-25T13:56:49Z</time></trkpt>
<trkpt lat="48.24003364" lon="11.72182479"><ele>486.564453</ele><time>2012-03-25T13:57:03Z</time></trkpt>
<trkpt lat="48.23937725" lon="11.72189109"><ele>486.564453</ele><time>2012-03-25T13:57:11Z</time></trkpt>
<trkpt lat="48.23830278" lon="11.72198120"><ele>486.08374</ele><time>2012-03-25T13:57:23Z</time></trkpt>
<trkpt lat="48.23724029" lon="11.72207935"><ele>487.045044</ele><time>2012-03-25T13:57:35Z</time></trkpt>
<trkpt lat="48.23636027" lon="11.72219275"><ele>487.525635</ele><time>2012-03-25T13:57:45Z</time></trkpt>
<trkpt lat="48.23611594" lon="11.72190685"><ele>488.00647</ele><time>2012-03-25T13:57:49Z</time></trkpt>
<trkpt lat="48.23610982" lon="11.72177291"><ele>488.00647</ele><time>2012-03-25T13:57:50Z</time></trkpt>
<trkpt lat="48.23604553" lon="11.72028160"><ele>488.967773</ele><time>2012-03-25T13:58:01Z</time></trkpt>
<trkpt lat="48.23595475" lon="11.71838745"><ele>489.448364</ele><time>2012-03-25T13:58:15Z</time></trkpt>
<trkpt lat="48.23588728" lon="11.71702766"><ele>488.967773</ele><time>2012-03-25T13:58:25Z</time></trkpt>
<trkpt lat="48.23570481" lon="11.71657596"><ele>488.487183</ele><time>2012-03-25T13:58:29Z</time></trkpt>
<trkpt lat="48.23562895" lon="11.71649499"><ele>488.487183</ele><time>2012-03-25T13:58:30Z</time></trkpt>
<trkpt lat="48.23457585" lon="11.71542898"><ele>488.00647</ele><time>2012-03-25T13:58:44Z</time></trkpt>
<trkpt lat="48.23381770" lon="11.71471082"><ele>487.525635</ele><time>2012-03-25T13:58:54Z</time></trkpt>
<trkpt lat="48.23310994" lon="11.71397162"><ele>487.045044</ele><time>2012-03-25T13:59:03Z</time></trkpt>
<trkpt lat="48.23237308" lon="11.71329520"><ele>488.00647</ele><time>2012-03-25T13:59:12Z</time></trkpt>
<trkpt lat="48.23160849" lon="11.71316276"><ele>489.929077</ele><time>2012-03-25T13:59:20Z</time></trkpt>
<trkpt lat="48.23063635" lon="11.71309554"><ele>489.448364</ele><time>2012-03-25T13:59:31Z</time></trkpt>
<trkpt lat="48.23038842" lon="11.71307073"><ele>489.448364</ele><time>2012-03-25T13:59:34Z</time></trkpt>
<trkpt lat="48.23017669" lon="11.71279237"><ele>489.929077</ele><time>2012-03-25T13:59:38Z</time></trkpt>
<trkpt lat="48.23017082" lon="11.71267200"><ele>489.929077</ele><time>2012-03-25T13:59:39Z</time></trkpt>
<trkpt lat="48.23014978" lon="11.71164690"><ele>488.967773</ele><time>2012-03-25T13:59:47Z</time></trkpt>
<trkpt lat="48.23007485" lon="11.70973683"><ele>487.045044</ele><time>2012-03-25T14:00:00Z</time></trkpt>
<trkpt lat="48.23001953" lon="11.70804477"><ele>485.122437</ele><time>2012-03-25T14:00:11Z</time></trkpt>
<trkpt lat="48.22996119" lon="11.70621743"><ele>483.68042</ele><time>2012-03-25T14:00:23Z</time></trkpt>
<trkpt lat="48.22989196" lon="11.70429270"><ele>483.199829</ele><time>2012-03-25T14:00:36Z</time></trkpt>
<trkpt lat="48.22983286" lon="11.70262730"><ele>483.68042</ele><time>2012-03-25T14:00:47Z</time></trkpt>
<trkpt lat="48.22978995" lon="11.70114437"><ele>484.161133</ele><time>2012-03-25T14:00:57Z</time></trkpt>
<trkpt lat="48.22970504" lon="11.69949967"><ele>484.161133</ele><time>2012-03-25T14:01:08Z</time></trkpt>
<trkpt lat="48.22950153" lon="11.69849929"><ele>485.603027</ele><time>2012-03-25T14:01:15Z</time></trkpt>
<trkpt lat="48.22926071" lon="11.69721209"><ele>487.045044</ele><time>2012-03-25T14:01:24Z</time></trkpt>
<trkpt lat="48.22918947" lon="11.69632830"><ele>488.00647</ele><time>2012-03-25T14:01:30Z</time></trkpt>
<trkpt lat="48.22906977" lon="11.69473599"><ele>487.525635</ele><time>2012-03-25T14:01:41Z</time></trkpt>
<trkpt lat="48.22900255" lon="11.69388858"><ele>488.00647</ele><time>2012-03-25T14:01:48Z</time></trkpt>
<trkpt lat="48.22898109" lon="11.69359471"><ele>487.525635</ele><time>2012-03-25T14:01:51Z</time></trkpt>
<trkpt lat="48.22883399" lon="11.69338524"><ele>487.045044</ele><time>2012-03-25T14:01:55Z</time></trkpt>
<trkpt lat="48.22877884" lon="11.69341483"><ele>487.045044</ele><time>2012-03-25T14:01:56Z</time></trkpt>
<trkpt lat="48.22821423" lon="11.69360510"><ele>487.045044</ele><time>2012-03-25T14:02:05Z</time></trkpt>
<trkpt lat="48.22714336" lon="11.69396167"><ele>488.967773</ele><time>2012-03-25T14:02:21Z</time></trkpt>
<trkpt lat="48.22621984" lon="11.69425252"><ele>489.929077</ele><time>2012-03-25T14:02:35Z</time></trkpt>
<trkpt lat="48.22533949" lon="11.69451990"><ele>489.929077</ele><time>2012-03-25T14:02:48Z</time></trkpt>
<trkpt lat="48.22436065" lon="11.69482173"><ele>491.851685</ele><time>2012-03-25T14:03:02Z</time></trkpt>
<trkpt lat="48.22335105" lon="11.69509993"><ele>489.929077</ele><time>2012-03-25T14:03:16Z</time></trkpt>
<trkpt lat="48.22285166" lon="11.69507780"><ele>490.40979</ele><time>2012-03-25T14:03:23Z</time></trkpt>
<trkpt lat="48.22206703" lon="11.69497286"><ele>489.929077</ele><time>2012-03-25T14:03:34Z</time></trkpt>
<trkpt lat="48.22131040" lon="11.69486197"><ele>490.890381</ele><time>2012-03-25T14:03:45Z</time></trkpt>
<trkpt lat="48.22096330" lon="11.69480413"><ele>491.851685</ele><time>2012-03-25T14:03:50Z</time></trkpt>
<trkpt lat="48.22077245" lon="11.69470103"><ele>491.851685</ele><time>2012-03-25T14:03:53Z</time></trkpt>
<trkpt lat="48.22031965" lon="11.69422251"><ele>492.332397</ele><time>2012-03-25T14:04:01Z</time></trkpt>
<trkpt lat="48.21979268" lon="11.69354257"><ele>492.332397</ele><time>2012-03-25T14:04:11Z</time></trkpt>
<trkpt lat="48.21957685" lon="11.69311593"><ele>491.851685</ele><time>2012-03-25T14:04:16Z</time></trkpt>
<trkpt lat="48.21945397" lon="11.69240305"><ele>492.812988</ele><time>2012-03-25T14:04:23Z</time></trkpt>
<trkpt lat="48.21928960" lon="11.69151390"><ele>497.138916</ele><time>2012-03-25T14:04:32Z</time></trkpt>
<trkpt lat="48.21911484" lon="11.69118877"><ele>497.619629</ele><time>2012-03-25T14:04:37Z</time></trkpt>
<trkpt lat="48.21909078" lon="11.69094594"><ele>497.619629</ele><time>2012-03-25T14:04:40Z</time></trkpt>
<trkpt lat="48.21909816" lon="11.69011915"><ele>498.580933</ele><time>2012-03-25T14:04:48Z</time></trkpt>
<trkpt lat="48.21902867" lon="11.68901341"><ele>494.735596</ele><time>2012-03-25T14:04:57Z</time></trkpt>
<trkpt lat="48.21903546" lon="11.68865114"><ele>493.774292</ele><time>2012-03-25T14:05:00Z</time></trkpt>
<trkpt lat="48.21910403" lon="11.68825317"><ele>494.255005</ele><time>2012-03-25T14:05:04Z</time></trkpt>
<trkpt lat="48.21900185" lon="11.68814915"><ele>494.735596</ele><time>2012-03-25T14:05:06Z</time></trkpt>
<trkpt lat="48.21881653" lon="11.68830078"><ele>495.216187</ele><time>2012-03-25T14:05:09Z</time></trkpt>
<trkpt lat="48.21857220" lon="11.68853380"><ele>495.216187</ele><time>2012-03-25T14:05:13Z</time></trkpt>
<trkpt lat="48.21852786" lon="11.68860043"><ele>495.216187</ele><time>2012-03-25T14:05:14Z</time></trkpt>
<trkpt lat="48.21826198" lon="11.68880881"><ele>494.735596</ele><time>2012-03-25T14:05:19Z</time></trkpt>
<trkpt lat="48.21759269" lon="11.68900260"><ele>493.293579</ele><time>2012-03-25T14:05:29Z</time></trkpt>
<trkpt lat="48.21672709" lon="11.68934206"><ele>492.332397</ele><time>2012-03-25T14:05:41Z</time></trkpt>
<trkpt lat="48.21594480" lon="11.68967776"><ele>492.812988</ele><time>2012-03-25T14:05:52Z</time></trkpt>
<trkpt lat="48.21521139" lon="11.69017355"><ele>493.293579</ele><time>2012-03-25T14:06:03Z</time></trkpt>
<trkpt lat="48.21459775" lon="11.69075525"><ele>492.332397</ele><time>2012-03-25T14:06:13Z</time></trkpt>
<trkpt lat="48.21383198" lon="11.69161725"><ele>490.890381</ele><time>2012-03-25T14:06:26Z</time></trkpt>
<trkpt lat="48.21284384" lon="11.69268770"><ele>489.448364</ele><time>2012-03-25T14:06:42Z</time></trkpt>
<trkpt lat="48.21216163" lon="11.69344367"><ele>489.929077</ele><time>2012-03-25T14:06:53Z</time></trkpt>
<trkpt lat="48.21141958" lon="11.69416166"><ele>491.370972</ele><time>2012-03-25T14:07:04Z</time></trkpt>
<trkpt lat="48.21070771" lon="11.69487035"><ele>491.851685</ele><time>2012-03-25T14:07:15Z</time></trkpt>
<trkpt lat="48.21005409" lon="11.69547619"><ele>492.812988</ele><time>2012-03-25T14:07:25Z</time></trkpt>
<trkpt lat="48.20922067" lon="11.69631095"><ele>493.293579</ele><time>2012-03-25T14:07:37Z</time></trkpt>
<trkpt lat="48.20826857" lon="11.69733061"><ele>494.255005</ele><time>2012-03-25T14:07:50Z</time></trkpt>
<trkpt lat="48.20770221" lon="11.69789144"><ele>497.138916</ele><time>2012-03-25T14:07:58Z</time></trkpt>
<trkpt lat="48.20698421" lon="11.69854489"><ele>498.580933</ele><time>2012-03-25T14:08:09Z</time></trkpt>
<trkpt lat="48.20632800" lon="11.69908728"><ele>498.580933</ele><time>2012-03-25T14:08:18Z</time></trkpt>
<trkpt lat="48.20532401" lon="11.69987921"><ele>498.100342</ele><time>2012-03-25T14:08:31Z</time></trkpt>
<trkpt lat="48.20450996" lon="11.70049628"><ele>498.580933</ele><time>2012-03-25T14:08:42Z</time></trkpt>
<trkpt lat="48.20366724" lon="11.70110364"><ele>499.061523</ele><time>2012-03-25T14:08:54Z</time></trkpt>
<trkpt lat="48.20328629" lon="11.70137915"><ele>499.061523</ele><time>2012-03-25T14:09:01Z</time></trkpt>
<trkpt lat="48.20271531" lon="11.70178777"><ele>498.580933</ele><time>2012-03-25T14:09:11Z</time></trkpt>
<trkpt lat="48.20204929" lon="11.70224424"><ele>498.100342</ele><time>2012-03-25T14:09:21Z</time></trkpt>
<trkpt lat="48.20190713" lon="11.70228967"><ele>498.100342</ele><time>2012-03-25T14:09:23Z</time></trkpt>
<trkpt lat="48.20128494" lon="11.70260852"><ele>498.580933</ele><time>2012-03-25T14:09:32Z</time></trkpt>
<trkpt lat="48.20072201" lon="11.70281103"><ele>499.061523</ele><time>2012-03-25T14:09:40Z</time></trkpt>
<trkpt lat="48.20022865" lon="11.70293449"><ele>499.542236</ele><time>2012-03-25T14:09:47Z</time></trkpt>
<trkpt lat="48.19939583" lon="11.70286266"><ele>497.619629</ele><time>2012-03-25T14:09:59Z</time></trkpt>
<trkpt lat="48.19860935" lon="11.70277381"><ele>497.619629</ele><time>2012-03-25T14:10:11Z</time></trkpt>
<trkpt lat="48.19801298" lon="11.70261682"><ele>498.100342</ele><time>2012-03-25T14:10:21Z</time></trkpt>
<trkpt lat="48.19772330" lon="11.70250333"><ele>497.619629</ele><time>2012-03-25T14:10:26Z</time></trkpt>
<trkpt lat="48.19721636" lon="11.70227006"><ele>497.619629</ele><time>2012-03-25T14:10:35Z</time></trkpt>
<trkpt lat="48.19690322" lon="11.70213838"><ele>499.061523</ele><time>2012-03-25T14:10:40Z</time></trkpt>
<trkpt lat="48.19651421" lon="11.70196362"><ele>499.061523</ele><time>2012-03-25T14:10:46Z</time></trkpt>
<trkpt lat="48.19596997" lon="11.70177259"><ele>500.022949</ele><time>2012-03-25T14:10:53Z</time></trkpt>
<trkpt lat="48.19533069" lon="11.70163907"><ele>498.580933</ele><time>2012-03-25T14:11:02Z</time></trkpt>
<trkpt lat="48.19489382" lon="11.70162993"><ele>500.022949</ele><time>2012-03-25T14:11:08Z</time></trkpt>
<trkpt lat="48.19464505" lon="11.70144335"><ele>500.984131</ele><time>2012-03-25T14:11:12Z</time></trkpt>
<trkpt lat="48.19457942" lon="11.70114269"><ele>501.464844</ele><time>2012-03-25T14:11:15Z</time></trkpt>
<trkpt lat="48.19459526" lon="11.70103163"><ele>501.464844</ele><time>2012-03-25T14:11:16Z</time></trkpt>
<trkpt lat="48.19461454" lon="11.70011398"><ele>501.464844</ele><time>2012-03-25T14:11:24Z</time></trkpt>
<trkpt lat="48.19468310" lon="11.69934075"><ele>500.50354</ele><time>2012-03-25T14:11:31Z</time></trkpt>
<trkpt lat="48.19463633" lon="11.69878428"><ele>500.022949</ele><time>2012-03-25T14:11:36Z</time></trkpt>
<trkpt lat="48.19461110" lon="11.69867456"><ele>500.50354</ele><time>2012-03-25T14:11:37Z</time></trkpt>
<trkpt lat="48.19430055" lon="11.69758324"><ele>501.945557</ele><time>2012-03-25T14:11:47Z</time></trkpt>
<trkpt lat="48.19398288" lon="11.69695258"><ele>503.868164</ele><time>2012-03-25T14:11:54Z</time></trkpt>
<trkpt lat="48.19315508" lon="11.69628714"><ele>506.271484</ele><time>2012-03-25T14:12:06Z</time></trkpt>
<trkpt lat="48.19233466" lon="11.69602445"><ele>505.310181</ele><time>2012-03-25T14:12:17Z</time></trkpt>
<trkpt lat="48.19227154" lon="11.69600333"><ele>505.310181</ele><time>2012-03-25T14:12:18Z</time></trkpt>
<trkpt lat="48.19204431" lon="11.69609025"><ele>505.310181</ele><time>2012-03-25T14:12:22Z</time></trkpt>
<trkpt lat="48.19182395" lon="11.69733706"><ele>501.945557</ele><time>2012-03-25T14:12:33Z</time></trkpt>
<trkpt lat="48.19161021" lon="11.69862494"><ele>501.464844</ele><time>2012-03-25T14:12:42Z</time></trkpt>
<trkpt lat="48.19140485" lon="11.69966865"><ele>502.906738</ele><time>2012-03-25T14:12:50Z</time></trkpt>
<trkpt lat="48.19108710" lon="11.70128435"><ele>501.945557</ele><time>2012-03-25T14:13:04Z</time></trkpt>
<trkpt lat="48.19071142" lon="11.70273785"><ele>501.945557</ele><time>2012-03-25T14:13:17Z</time></trkpt>
<trkpt lat="48.19053305" lon="11.70340925"><ele>502.906738</ele><time>2012-03-25T14:13:23Z</time></trkpt>
<trkpt lat="48.19027858" lon="11.70378543"><ele>502.906738</ele><time>2012-03-25T14:13:28Z</time></trkpt>
<trkpt lat="48.18940577" lon="11.70438046"><ele>504.348877</ele><time>2012-03-25T14:13:40Z</time></trkpt>
<trkpt lat="48.18907678" lon="11.70460970"><ele>504.348877</ele><time>2012-03-25T14:13:45Z</time></trkpt>
<trkpt lat="48.18876472" lon="11.70416152"><ele>505.790894</ele><time>2012-03-25T14:13:54Z</time></trkpt>
<trkpt lat="48.18878861" lon="11.70383505"><ele>505.310181</ele><time>2012-03-25T14:13:58Z</time></trkpt>
<trkpt lat="48.18896446" lon="11.70350924"><ele>505.310181</ele><time>2012-03-25T14:14:03Z</time></trkpt>
<trkpt lat="48.18896354" lon="11.70342106"><ele>505.310181</ele><time>2012-03-25T14:14:04Z</time></trkpt>
<trkpt lat="48.18881736" lon="11.70271891"><ele>505.790894</ele><time>2012-03-25T14:14:11Z</time></trkpt>
<trkpt lat="48.18853648" lon="11.70146096"><ele>507.713501</ele><time>2012-03-25T14:14:22Z</time></trkpt>
<trkpt lat="48.18828679" lon="11.70042965"><ele>509.155396</ele><time>2012-03-25T14:14:32Z</time></trkpt>
<trkpt lat="48.18825016" lon="11.70025522"><ele>509.155396</ele><time>2012-03-25T14:14:34Z</time></trkpt>
<trkpt lat="48.18837572" lon="11.70005749"><ele>509.155396</ele><time>2012-03-25T14:14:38Z</time></trkpt>
<trkpt lat="48.18843590" lon="11.70005204"><ele>509.155396</ele><time>2012-03-25T14:14:39Z</time></trkpt>
<trkpt lat="48.18884360" lon="11.70002019"><ele>509.636108</ele><time>2012-03-25T14:14:45Z</time></trkpt>
<trkpt lat="48.18895667" lon="11.69976722"><ele>510.116699</ele><time>2012-03-25T14:14:49Z</time></trkpt>
<trkpt lat="48.18893664" lon="11.69967050"><ele>510.59729</ele><time>2012-03-25T14:14:50Z</time></trkpt>
<trkpt lat="48.18874670" lon="11.69863148"><ele>510.116699</ele><time>2012-03-25T14:14:59Z</time></trkpt>
<trkpt lat="48.18842182" lon="11.69687203"><ele>511.078003</ele><time>2012-03-25T14:15:14Z</time></trkpt>
<trkpt lat="48.18819936" lon="11.69566671"><ele>510.59729</ele><time>2012-03-25T14:15:24Z</time></trkpt>
<trkpt lat="48.18800574" lon="11.69463700"><ele>511.078003</ele><time>2012-03-25T14:15:33Z</time></trkpt>
<trkpt lat="48.18801940" lon="11.69417365"><ele>511.078003</ele><time>2012-03-25T14:15:37Z</time></trkpt>
<trkpt lat="48.18815745" lon="11.69292407"><ele>513.481445</ele><time>2012-03-25T14:15:47Z</time></trkpt>
<trkpt lat="48.18829249" lon="11.69163686"><ele>513.481445</ele><time>2012-03-25T14:15:57Z</time></trkpt>
<trkpt lat="48.18842031" lon="11.69040858"><ele>507.713501</ele><time>2012-03-25T14:16:06Z</time></trkpt>
<trkpt lat="48.18853565" lon="11.68928725"><ele>505.310181</ele><time>2012-03-25T14:16:13Z</time></trkpt>
<trkpt lat="48.18868736" lon="11.68785059"><ele>504.829468</ele><time>2012-03-25T14:16:23Z</time></trkpt>
<trkpt lat="48.18882130" lon="11.68665726"><ele>506.271484</ele><time>2012-03-25T14:16:32Z</time></trkpt>
<trkpt lat="48.18896036" lon="11.68537784"><ele>507.713501</ele><time>2012-03-25T14:16:42Z</time></trkpt>
<trkpt lat="48.18911936" lon="11.68401604"><ele>507.713501</ele><time>2012-03-25T14:16:53Z</time></trkpt>
<trkpt lat="48.18924853" lon="11.68281902"><ele>508.674683</ele><time>2012-03-25T14:17:03Z</time></trkpt>
<trkpt lat="48.18939035" lon="11.68142729"><ele>507.232788</ele><time>2012-03-25T14:17:14Z</time></trkpt>
<trkpt lat="48.18960182" lon="11.67955561"><ele>507.232788</ele><time>2012-03-25T14:17:29Z</time></trkpt>
<trkpt lat="48.18976628" lon="11.67810378"><ele>504.829468</ele><time>2012-03-25T14:17:41Z</time></trkpt>
<trkpt lat="48.18987474" lon="11.67702444"><ele>503.868164</ele><time>2012-03-25T14:17:50Z</time></trkpt>
<trkpt lat="48.18993886" lon="11.67645112"><ele>503.387451</ele><time>2012-03-25T14:17:56Z</time></trkpt>
<trkpt lat="48.18997591" lon="11.67610821"><ele>503.387451</ele><time>2012-03-25T14:18:01Z</time></trkpt>
<trkpt lat="48.19002855" lon="11.67557353"><ele>503.868164</ele><time>2012-03-25T14:18:07Z</time></trkpt>
<trkpt lat="48.19014732" lon="11.67449503"><ele>504.829468</ele><time>2012-03-25T14:18:17Z</time></trkpt>
<trkpt lat="48.19029157" lon="11.67325493"><ele>506.752075</ele><time>2012-03-25T14:18:28Z</time></trkpt>
<trkpt lat="48.19046516" lon="11.67176153"><ele>508.194092</ele><time>2012-03-25T14:18:41Z</time></trkpt>
<trkpt lat="48.19060849" lon="11.67038522"><ele>507.232788</ele><time>2012-03-25T14:18:53Z</time></trkpt>
<trkpt lat="48.19072315" lon="11.66945835"><ele>505.310181</ele><time>2012-03-25T14:19:01Z</time></trkpt>
<trkpt lat="48.19084385" lon="11.66819612"><ele>503.387451</ele><time>2012-03-25T14:19:12Z</time></trkpt>
<trkpt lat="48.19095215" lon="11.66722759"><ele>502.906738</ele><time>2012-03-25T14:19:20Z</time></trkpt>
<trkpt lat="48.19108768" lon="11.66590719"><ele>502.906738</ele><time>2012-03-25T14:19:30Z</time></trkpt>
<trkpt lat="48.19125532" lon="11.66462735"><ele>504.348877</ele><time>2012-03-25T14:19:39Z</time></trkpt>
<trkpt lat="48.19128114" lon="11.66358314"><ele>503.868164</ele><time>2012-03-25T14:19:46Z</time></trkpt>
<trkpt lat="48.19128240" lon="11.66229324"><ele>503.868164</ele><time>2012-03-25T14:19:55Z</time></trkpt>
<trkpt lat="48.19126647" lon="11.66110888"><ele>503.387451</ele><time>2012-03-25T14:20:03Z</time></trkpt>
<trkpt lat="48.19125985" lon="11.65988219"><ele>503.387451</ele><time>2012-03-25T14:20:11Z</time></trkpt>
<trkpt lat="48.19128751" lon="11.65946485"><ele>502.906738</ele><time>2012-03-25T14:20:15Z</time></trkpt>
<trkpt lat="48.19127938" lon="11.65882724"><ele>503.387451</ele><time>2012-03-25T14:20:23Z</time></trkpt>
<trkpt lat="48.19128231" lon="11.65839968"><ele>503.387451</ele><time>2012-03-25T14:20:28Z</time></trkpt>
<trkpt lat="48.19119874" lon="11.65816415"><ele>504.829468</ele><time>2012-03-25T14:20:31Z</time></trkpt>
<trkpt lat="48.19107469" lon="11.65810212"><ele>504.348877</ele><time>2012-03-25T14:20:33Z</time></trkpt>
<trkpt lat="48.19064219" lon="11.65788545"><ele>503.387451</ele><time>2012-03-25T14:20:40Z</time></trkpt>
<trkpt lat="48.19048402" lon="11.65762972"><ele>503.387451</ele><time>2012-03-25T14:20:44Z</time></trkpt>
<trkpt lat="48.19050162" lon="11.65743141"><ele>503.387451</ele><time>2012-03-25T14:20:46Z</time></trkpt>
<trkpt lat="48.19059692" lon="11.65644150"><ele>505.790894</ele><time>2012-03-25T14:20:56Z</time></trkpt>
<trkpt lat="48.19044010" lon="11.65621100"><ele>505.310181</ele><time>2012-03-25T14:21:00Z</time></trkpt>
<trkpt lat="48.19037153" lon="11.65620069"><ele>505.790894</ele><time>2012-03-25T14:21:01Z</time></trkpt>
<trkpt lat="48.18970727" lon="11.65599190"><ele>505.310181</ele><time>2012-03-25T14:21:11Z</time></trkpt>
<trkpt lat="48.18939370" lon="11.65584412"><ele>503.868164</ele><time>2012-03-25T14:21:16Z</time></trkpt>
<trkpt lat="48.18927283" lon="11.65574849"><ele>503.387451</ele><time>2012-03-25T14:21:18Z</time></trkpt>
<trkpt lat="48.18879004" lon="11.65516972"><ele>505.310181</ele><time>2012-03-25T14:21:27Z</time></trkpt>
<trkpt lat="48.18853967" lon="11.65502806"><ele>504.829468</ele><time>2012-03-25T14:21:31Z</time></trkpt>
<trkpt lat="48.18753032" lon="11.65468625"><ele>506.752075</ele><time>2012-03-25T14:21:46Z</time></trkpt>
<trkpt lat="48.18651116" lon="11.65430672"><ele>507.713501</ele><time>2012-03-25T14:22:01Z</time></trkpt>
<trkpt lat="48.18590146" lon="11.65411494"><ele>507.713501</ele><time>2012-03-25T14:22:10Z</time></trkpt>
<trkpt lat="48.18537366" lon="11.65393624"><ele>508.194092</ele><time>2012-03-25T14:22:18Z</time></trkpt>
<trkpt lat="48.18487971" lon="11.65372375"><ele>508.194092</ele><time>2012-03-25T14:22:26Z</time></trkpt>
<trkpt lat="48.18473361" lon="11.65343592"><ele>507.713501</ele><time>2012-03-25T14:22:30Z</time></trkpt>
<trkpt lat="48.18471861" lon="11.65279973"><ele>506.752075</ele><time>2012-03-25T14:22:36Z</time></trkpt>
<trkpt lat="48.18478114" lon="11.65176935"><ele>505.790894</ele><time>2012-03-25T14:22:46Z</time></trkpt>
<trkpt lat="48.18488047" lon="11.65069462"><ele>506.271484</ele><time>2012-03-25T14:22:57Z</time></trkpt>
<trkpt lat="48.18489547" lon="11.65060552"><ele>506.271484</ele><time>2012-03-25T14:22:58Z</time></trkpt>
<trkpt lat="48.18496546" lon="11.65034241"><ele>506.752075</ele><time>2012-03-25T14:23:01Z</time></trkpt>
<trkpt lat="48.18492648" lon="11.64992625"><ele>507.232788</ele><time>2012-03-25T14:23:05Z</time></trkpt>
<trkpt lat="48.18492849" lon="11.64970815"><ele>507.232788</ele><time>2012-03-25T14:23:07Z</time></trkpt>
<trkpt lat="48.18498499" lon="11.64861708"><ele>507.232788</ele><time>2012-03-25T14:23:17Z</time></trkpt>
<trkpt lat="48.18506705" lon="11.64742936"><ele>506.271484</ele><time>2012-03-25T14:23:27Z</time></trkpt>
<trkpt lat="48.18519579" lon="11.64542165"><ele>505.310181</ele><time>2012-03-25T14:23:44Z</time></trkpt>
<trkpt lat="48.18515019" lon="11.64468563"><ele>502.906738</ele><time>2012-03-25T14:23:50Z</time></trkpt>
<trkpt lat="48.18515271" lon="11.64369204"><ele>500.984131</ele><time>2012-03-25T14:23:57Z</time></trkpt>
<trkpt lat="48.18518389" lon="11.64276727"><ele>501.945557</ele><time>2012-03-25T14:24:04Z</time></trkpt>
<trkpt lat="48.18532730" lon="11.64111989"><ele>502.426147</ele><time>2012-03-25T14:24:17Z</time></trkpt>
<trkpt lat="48.18553526" lon="11.63966613"><ele>504.829468</ele><time>2012-03-25T14:24:29Z</time></trkpt>
<trkpt lat="48.18572285" lon="11.63831849"><ele>507.713501</ele><time>2012-03-25T14:24:41Z</time></trkpt>
<trkpt lat="48.18579753" lon="11.63738173"><ele>507.232788</ele><time>2012-03-25T14:24:50Z</time></trkpt>
<trkpt lat="48.18583072" lon="11.63640280"><ele>506.271484</ele><time>2012-03-25T14:24:59Z</time></trkpt>
<trkpt lat="48.18587313" lon="11.63553259"><ele>506.752075</ele><time>2012-03-25T14:25:08Z</time></trkpt>
<trkpt lat="48.18593172" lon="11.63480295"><ele>507.713501</ele><time>2012-03-25T14:25:17Z</time></trkpt>
<trkpt lat="48.18595754" lon="11.63446440"><ele>508.194092</ele><time>2012-03-25T14:25:24Z</time></trkpt>
<trkpt lat="48.18587464" lon="11.63431898"><ele>513.481445</ele><time>2012-03-25T14:25:43Z</time></trkpt>
<trkpt lat="48.18570365" lon="11.63425670"><ele>512.52002</ele><time>2012-03-25T14:25:52Z</time></trkpt>
<trkpt lat="48.18545932" lon="11.63424505"><ele>511.558716</ele><time>2012-03-25T14:25:58Z</time></trkpt>
<trkpt lat="48.18490159" lon="11.63420188"><ele>511.078003</ele><time>2012-03-25T14:26:10Z</time></trkpt>
<trkpt lat="48.18454259" lon="11.63412125"><ele>513.481445</ele><time>2012-03-25T14:26:19Z</time></trkpt>
<trkpt lat="48.18425383" lon="11.63406593"><ele>513.481445</ele><time>2012-03-25T14:26:41Z</time></trkpt>
<trkpt lat="48.18362041" lon="11.63325774"><ele>515.884644</ele><time>2012-03-25T14:27:21Z</time></trkpt>
<trkpt lat="48.18305505" lon="11.63279188"><ele>514.442627</ele><time>2012-03-25T14:27:31Z</time></trkpt>
<trkpt lat="48.18294408" lon="11.63269423"><ele>514.442627</ele><time>2012-03-25T14:27:34Z</time></trkpt>
<trkpt lat="48.18318472" lon="11.63160299"><ele>510.116699</ele><time>2012-03-25T14:27:48Z</time></trkpt>
<trkpt lat="48.18330475" lon="11.63119898"><ele>509.636108</ele><time>2012-03-25T14:27:52Z</time></trkpt>
<trkpt lat="48.18377741" lon="11.62995880"><ele>504.829468</ele><time>2012-03-25T14:28:02Z</time></trkpt>
<trkpt lat="48.18433036" lon="11.62846967"><ele>499.542236</ele><time>2012-03-25T14:28:12Z</time></trkpt>
<trkpt lat="48.18478776" lon="11.62693016"><ele>497.138916</ele><time>2012-03-25T14:28:21Z</time></trkpt>
<trkpt lat="48.18534683" lon="11.62464308"><ele>495.696899</ele><time>2012-03-25T14:28:34Z</time></trkpt>
<trkpt lat="48.18570985" lon="11.62347615"><ele>496.658325</ele><time>2012-03-25T14:28:42Z</time></trkpt>
<trkpt lat="48.18612048" lon="11.62222540"><ele>495.696899</ele><time>2012-03-25T14:28:52Z</time></trkpt>
<trkpt lat="48.18628561" lon="11.62179792"><ele>496.177734</ele><time>2012-03-25T14:28:56Z</time></trkpt>
<trkpt lat="48.18678123" lon="11.62131026"><ele>495.216187</ele><time>2012-03-25T14:29:03Z</time></trkpt>
<trkpt lat="48.18692129" lon="11.62108496"><ele>495.216187</ele><time>2012-03-25T14:29:06Z</time></trkpt>
<trkpt lat="48.18633959" lon="11.62041248"><ele>495.216187</ele><time>2012-03-25T14:29:28Z</time></trkpt>
<trkpt lat="48.18618922" lon="11.62029505"><ele>495.696899</ele><time>2012-03-25T14:29:31Z</time></trkpt>
<trkpt lat="48.18600758" lon="11.62048976"><ele>495.216187</ele><time>2012-03-25T14:29:36Z</time></trkpt>
<trkpt lat="48.18580524" lon="11.62103534"><ele>497.138916</ele><time>2012-03-25T14:29:46Z</time></trkpt>
<trkpt lat="48.18573249" lon="11.62103584"><ele>497.138916</ele><time>2012-03-25T14:29:48Z</time></trkpt>
<trkpt lat="48.18527081" lon="11.62070945"><ele>497.138916</ele><time>2012-03-25T14:29:57Z</time></trkpt>
<trkpt lat="48.18521675" lon="11.61982985"><ele>495.696899</ele><time>2012-03-25T14:30:09Z</time></trkpt>
<trkpt lat="48.18523636" lon="11.61975659"><ele>493.293579</ele><time>2012-03-25T14:30:12Z</time></trkpt>
<trkpt lat="48.18536636" lon="11.61924253"><ele>489.929077</ele><time>2012-03-25T14:30:24Z</time></trkpt>
<trkpt lat="48.18531591" lon="11.61770378"><ele>490.40979</ele><time>2012-03-25T14:30:49Z</time></trkpt>
<trkpt lat="48.18528967" lon="11.61756900"><ele>490.40979</ele><time>2012-03-25T14:30:51Z</time></trkpt>
<trkpt lat="48.18522069" lon="11.61742911"><ele>490.890381</ele><time>2012-03-25T14:30:53Z</time></trkpt>
<trkpt lat="48.18480092" lon="11.61687096"><ele>490.40979</ele><time>2012-03-25T14:31:03Z</time></trkpt>
<trkpt lat="48.18438241" lon="11.61637290"><ele>488.967773</ele><time>2012-03-25T14:31:14Z</time></trkpt>
<trkpt lat="48.18385611" lon="11.61580897"><ele>490.40979</ele><time>2012-03-25T14:31:25Z</time></trkpt>
<trkpt lat="48.18324273" lon="11.61518888"><ele>492.812988</ele><time>2012-03-25T14:31:37Z</time></trkpt>
<trkpt lat="48.18286579" lon="11.61485067"><ele>492.812988</ele><time>2012-03-25T14:31:45Z</time></trkpt>
<trkpt lat="48.18287183" lon="11.61451355"><ele>491.370972</ele><time>2012-03-25T14:31:51Z</time></trkpt>
<trkpt lat="48.18298004" lon="11.61399395"><ele>491.370972</ele><time>2012-03-25T14:32:00Z</time></trkpt>
<trkpt lat="48.18336116" lon="11.61266475"><ele>495.696899</ele><time>2012-03-25T14:32:26Z</time></trkpt>
<trkpt lat="48.18331950" lon="11.61199478"><ele>498.100342</ele><time>2012-03-25T14:32:37Z</time></trkpt>
<trkpt lat="48.18335580" lon="11.61145348"><ele>499.542236</ele><time>2012-03-25T14:32:46Z</time></trkpt>
<trkpt lat="48.18358127" lon="11.61121753"><ele>551.934082</ele><time>2012-03-25T14:32:53Z</time></trkpt>
<trkpt lat="48.18364698" lon="11.61113899"><ele>516.365234</ele><time>2012-03-25T14:32:55Z</time></trkpt>
</trkseg></trk></gpx>